Darstellungsparameter: Aktuell verwendete Einstellungen:
Skalierung der Graphiken ... ?
xyx+y,   Skalierungsfaktor:      Skalierung: Modus: x, Faktor: 1
Darstellungszeitraum ... ?
Vom - - bis: - -   Zeitraum: 13.08.2014 - 17.08.2014
Min/Max/Avg-Anzeige ... ?
Zeige MMA aktuell
Zeige MMA Monat
Zeige MMA alles
Zeige --A aktuell
Zeige --A Monat
Zeige --A alles
Keine MMA-Anzeige
MMA:
Keine MMA-Graphiken
MMA-Basis: 13.08.2014 - 17.08.2014
Quicknavigation für Darstellung... ?
Tage:      1T, 2T, 3T, 5T -1T -2T -3T -5T +1T +2T +3T +5T
Wochen: 1W, 2W, 3W -1W -2W -3W +1W +2W +3W
Monate: 1M, 3M, 6M -1M -3M -6M +1M +3M +6M
Jahre:    1J, 3J, 5J, 10J -1J -3J -5J -10J +1J +3J +5J +10J
Nutze für die Darstellung ... ?
Originaldaten oder Mittelwerte auf ...
Stundenbasis Tagesbasis Wochenbasis
Monatsbasis Jahresbasis      Datenbasis: Original-Daten
Darstellen als:
Statistik (Auto) Statistik J:M      Darstellung:
Zur Graphik,    zurück zur Übersicht aller Sensoren.
 
Tabellarische Datenbersicht: ?
 
Sensor: Nr:Datum:Temp:Abs-Feuchte:Windchill:Wind:
Aussen-T/F 1 13-08-2014 00:00:00 14.7 C 10.7 g/m*3 14.7 C 0 km/h
2 13-08-2014 00:05:00 14.7 C 10.83 g/m*3 14.7 C 0 km/h
3 13-08-2014 00:10:00 14.7 C 10.95 g/m*3 14.7 C 0 km/h
4 13-08-2014 00:15:00 14.6 C 10.89 g/m*3 14.6 C 0 km/h
5 13-08-2014 00:20:00 14.5 C 10.82 g/m*3 14.5 C 0 km/h
6 13-08-2014 00:25:00 14.4 C 10.88 g/m*3 14.4 C 0 km/h
7 13-08-2014 00:30:00 14.3 C 10.81 g/m*3 14.3 C 0 km/h
8 13-08-2014 00:35:00 14.2 C 10.75 g/m*3 14.2 C 0 km/h
9 13-08-2014 00:40:00 14.1 C 10.8 g/m*3 14.1 C 0 km/h
10 13-08-2014 00:45:00 14 C 10.74 g/m*3 14 C 0 km/h
11 13-08-2014 00:50:00 13.9 C 10.67 g/m*3 13.9 C 0 km/h
12 13-08-2014 00:55:00 13.9 C 10.79 g/m*3 13.9 C 0 km/h
13 13-08-2014 01:00:00 13.8 C 10.72 g/m*3 13.8 C 0 km/h
14 13-08-2014 01:05:00 13.8 C 10.72 g/m*3 13.8 C 0 km/h
15 13-08-2014 01:10:00 13.9 C 10.79 g/m*3 13.9 C 0 km/h
16 13-08-2014 01:15:00 13.9 C 10.79 g/m*3 13.9 C 0 km/h
17 13-08-2014 01:20:00 14 C 10.98 g/m*3 14 C 0 km/h
18 13-08-2014 01:25:00 14.1 C 11.04 g/m*3 14.1 C 0 km/h
19 13-08-2014 01:30:00 14.2 C 10.99 g/m*3 14.2 C 0 km/h
20 13-08-2014 01:35:00 14.2 C 10.99 g/m*3 14.2 C 0 km/h
21 13-08-2014 01:40:00 14.3 C 11.06 g/m*3 14.3 C 0 km/h
22 13-08-2014 01:45:00 14.3 C 11.06 g/m*3 14.3 C 0 km/h
23 13-08-2014 01:50:00 14.3 C 11.06 g/m*3 14.3 C 0 km/h
24 13-08-2014 01:55:00 14.3 C 10.93 g/m*3 14.3 C 0 km/h
25 13-08-2014 02:00:00 14.2 C 10.87 g/m*3 14.2 C 0 km/h
Sensor: Nr:Datum:Temp:Abs-Feuchte:Windchill:Wind:
Aussen-T/F 26 13-08-2014 02:05:00 14.1 C 10.8 g/m*3 14.1 C 0 km/h
27 13-08-2014 02:10:00 14 C 10.86 g/m*3 14 C 0 km/h
28 13-08-2014 02:15:00 13.8 C 10.72 g/m*3 13.8 C 0 km/h
29 13-08-2014 02:20:00 13.8 C 10.84 g/m*3 13.8 C 0 km/h
30 13-08-2014 02:25:00 13.8 C 10.96 g/m*3 13.8 C 0 km/h
31 13-08-2014 02:30:00 13.8 C 10.96 g/m*3 13.8 C 0 km/h
32 13-08-2014 02:35:00 13.9 C 11.03 g/m*3 13.9 C 0 km/h
33 13-08-2014 02:40:00 13.9 C 11.03 g/m*3 13.9 C 0 km/h
34 13-08-2014 02:45:00 14 C 11.1 g/m*3 14 C 0 km/h
35 13-08-2014 02:50:00 14.1 C 11.17 g/m*3 14.1 C 0 km/h
36 13-08-2014 02:55:00 14.1 C 11.04 g/m*3 14.1 C 0 km/h
37 13-08-2014 03:00:00 14.2 C 11.11 g/m*3 14.2 C 0 km/h
38 13-08-2014 03:05:00 14.2 C 11.11 g/m*3 14.2 C 0 km/h
39 13-08-2014 03:10:00 14.2 C 11.11 g/m*3 14.2 C 0 km/h
40 13-08-2014 03:15:00 14.2 C 10.99 g/m*3 14.2 C 0 km/h
41 13-08-2014 03:20:00 14.2 C 10.99 g/m*3 14.2 C 0 km/h
42 13-08-2014 03:25:00 14.2 C 11.11 g/m*3 14.2 C 0 km/h
43 13-08-2014 03:30:00 14.1 C 11.04 g/m*3 14.1 C 0 km/h
44 13-08-2014 03:35:00 14 C 10.98 g/m*3 14 C 0 km/h
45 13-08-2014 03:40:00 13.9 C 10.91 g/m*3 13.9 C 0 km/h
46 13-08-2014 03:45:00 13.9 C 10.91 g/m*3 13.9 C 0 km/h
47 13-08-2014 03:50:00 13.9 C 10.91 g/m*3 13.9 C 0 km/h
48 13-08-2014 03:55:00 13.9 C 10.91 g/m*3 13.9 C 0 km/h
49 13-08-2014 04:00:00 13.9 C 10.91 g/m*3 13.9 C 0 km/h
50 13-08-2014 04:05:00 14.1 C 11.04 g/m*3 14.1 C 0 km/h
Sensor: Nr:Datum:Temp:Abs-Feuchte:Windchill:Wind:
Aussen-T/F 51 13-08-2014 04:10:00 14.1 C 11.04 g/m*3 14.1 C 0 km/h
52 13-08-2014 04:15:00 14.1 C 11.04 g/m*3 14.1 C 0 km/h
53 13-08-2014 04:20:00 14.2 C 10.99 g/m*3 14.2 C 0 km/h
54 13-08-2014 04:25:00 14.2 C 10.99 g/m*3 14.2 C 0 km/h
55 13-08-2014 04:30:00 14.2 C 10.99 g/m*3 14.2 C 0 km/h
56 13-08-2014 04:35:00 14.2 C 10.99 g/m*3 14.2 C 0 km/h
57 13-08-2014 04:40:00 14.2 C 10.99 g/m*3 14.2 C 0 km/h
58 13-08-2014 04:45:00 14.1 C 10.92 g/m*3 14.1 C 0 km/h
59 13-08-2014 04:50:00 14.1 C 11.04 g/m*3 14.1 C 0 km/h
60 13-08-2014 04:55:00 14.1 C 11.04 g/m*3 14.1 C 0 km/h
61 13-08-2014 05:00:00 14.1 C 11.04 g/m*3 14.1 C 0 km/h
62 13-08-2014 05:05:00 14.2 C 11.11 g/m*3 14.2 C 0 km/h
63 13-08-2014 05:10:00 14.2 C 11.11 g/m*3 14.2 C 0 km/h
64 13-08-2014 05:15:00 14.2 C 11.11 g/m*3 14.2 C 0 km/h
65 13-08-2014 05:20:00 14.2 C 11.11 g/m*3 14.2 C 0 km/h
66 13-08-2014 05:25:00 14.2 C 11.11 g/m*3 14.2 C 0 km/h
67 13-08-2014 05:30:00 14.1 C 11.04 g/m*3 14.1 C 0 km/h
68 13-08-2014 05:35:00 14.1 C 11.04 g/m*3 14.1 C 0 km/h
69 13-08-2014 05:40:00 14.1 C 11.04 g/m*3 14.1 C 0 km/h
70 13-08-2014 05:45:00 14.1 C 11.04 g/m*3 14.1 C 0 km/h
71 13-08-2014 05:50:00 14 C 10.98 g/m*3 14 C 0 km/h
72 13-08-2014 05:55:00 13.9 C 10.91 g/m*3 13.9 C 0 km/h
73 13-08-2014 06:00:00 13.8 C 10.96 g/m*3 13.8 C 0 km/h
74 13-08-2014 06:05:00 13.8 C 10.96 g/m*3 13.8 C 0 km/h
75 13-08-2014 06:10:00 13.7 C 10.89 g/m*3 13.7 C 0 km/h
Sensor: Nr:Datum:Temp:Abs-Feuchte:Windchill:Wind:
Aussen-T/F 76 13-08-2014 06:15:00 13.6 C 10.83 g/m*3 13.6 C 0 km/h
77 13-08-2014 06:20:00 13.6 C 10.83 g/m*3 13.6 C 0 km/h
78 13-08-2014 06:25:00 13.5 C 10.76 g/m*3 13.5 C 0 km/h
79 13-08-2014 06:30:00 13.4 C 10.81 g/m*3 13.4 C 0 km/h
80 13-08-2014 06:35:00 13.5 C 10.88 g/m*3 13.5 C 0 km/h
81 13-08-2014 06:40:00 13.5 C 10.88 g/m*3 13.5 C 0 km/h
82 13-08-2014 06:45:00 13.6 C 10.95 g/m*3 13.6 C 0 km/h
83 13-08-2014 06:50:00 13.7 C 11.01 g/m*3 13.7 C 0 km/h
84 13-08-2014 06:55:00 13.7 C 11.01 g/m*3 13.7 C 0 km/h
85 13-08-2014 07:00:00 13.8 C 11.08 g/m*3 13.8 C 0 km/h
86 13-08-2014 07:05:00 13.9 C 11.15 g/m*3 13.9 C 0 km/h
87 13-08-2014 07:10:00 13.9 C 11.15 g/m*3 13.9 C 0 km/h
88 13-08-2014 07:15:00 14 C 11.22 g/m*3 14 C 0 km/h
89 13-08-2014 07:20:00 14 C 11.22 g/m*3 14 C 0 km/h
90 13-08-2014 07:25:00 14 C 11.22 g/m*3 14 C 0 km/h
91 13-08-2014 07:30:00 13.9 C 11.15 g/m*3 13.9 C 0 km/h
92 13-08-2014 07:35:00 14 C 11.22 g/m*3 14 C 0 km/h
93 13-08-2014 07:40:00 14 C 11.22 g/m*3 14 C 0 km/h
94 13-08-2014 07:45:00 14.1 C 11.41 g/m*3 14.1 C 0 km/h
95 13-08-2014 07:50:00 14.2 C 11.48 g/m*3 14.2 C 0 km/h
96 13-08-2014 07:55:00 14.2 C 11.48 g/m*3 14.2 C 0 km/h
97 13-08-2014 08:00:00 14.3 C 11.55 g/m*3 14.3 C 0 km/h
98 13-08-2014 08:05:00 14.4 C 11.5 g/m*3 14.4 C 0 km/h
99 13-08-2014 08:10:00 14.6 C 11.51 g/m*3 14.6 C 0 km/h
100 13-08-2014 08:15:00 14.7 C 11.58 g/m*3 14.7 C 0 km/h
Sensor: Nr:Datum:Temp:Abs-Feuchte:Windchill:Wind:
Aussen-T/F 101 13-08-2014 08:20:00 14.9 C 11.73 g/m*3 14.9 C 0 km/h
102 13-08-2014 08:25:00 15.1 C 11.74 g/m*3 15.1 C 0 km/h
103 13-08-2014 08:30:00 15.2 C 11.68 g/m*3 15.2 C 0 km/h
104 13-08-2014 08:35:00 15.3 C 11.62 g/m*3 15.3 C 0 km/h
105 13-08-2014 08:40:00 15.3 C 11.62 g/m*3 15.3 C 0 km/h
106 13-08-2014 08:45:00 15.3 C 11.75 g/m*3 15.3 C 0 km/h
107 13-08-2014 08:50:00 15.3 C 11.88 g/m*3 15.3 C 0 km/h
108 13-08-2014 08:55:00 15.4 C 11.96 g/m*3 15.4 C 0 km/h
109 13-08-2014 09:00:00 15.4 C 12.09 g/m*3 15.4 C 0 km/h
110 13-08-2014 09:05:00 15.7 C 12.18 g/m*3 15.7 C 0 km/h
111 13-08-2014 09:10:00 15.9 C 12.19 g/m*3 15.9 C 0 km/h
112 13-08-2014 09:15:00 16.2 C 12 g/m*3 16.2 C 0 km/h
113 13-08-2014 09:20:00 16.6 C 12.29 g/m*3 16.6 C 0 km/h
114 13-08-2014 09:25:00 16.8 C 12.3 g/m*3 16.8 C 0 km/h
115 13-08-2014 09:30:00 16.9 C 12.08 g/m*3 16.9 C 0 km/h
116 13-08-2014 09:35:00 17.2 C 12.15 g/m*3 17.2 C 0 km/h
117 13-08-2014 09:40:00 17.3 C 12.08 g/m*3 17.3 C 0 km/h
118 13-08-2014 09:45:00 17.4 C 12.15 g/m*3 17.4 C 0 km/h
119 13-08-2014 09:50:00 17.5 C 12.23 g/m*3 17.5 C 0 km/h
120 13-08-2014 09:55:00 17.6 C 12 g/m*3 17.6 C 0 km/h
121 13-08-2014 10:00:00 17.7 C 12.07 g/m*3 17.7 C 0 km/h
122 13-08-2014 10:05:00 17.7 C 12.07 g/m*3 17.7 C 0 km/h
123 13-08-2014 10:10:00 17.8 C 12.29 g/m*3 17.8 C 0 km/h
124 13-08-2014 10:15:00 17.9 C 12.06 g/m*3 17.9 C 0 km/h
125 13-08-2014 10:20:00 18.1 C 12.36 g/m*3 18.1 C 0 km/h
Sensor: Nr:Datum:Temp:Abs-Feuchte:Windchill:Wind:
Aussen-T/F 126 13-08-2014 10:25:00 18.2 C 12.28 g/m*3 18.2 C 4.8 km/h
127 13-08-2014 10:30:00 18.3 C 12.35 g/m*3 18.3 C 6.4 km/h
128 13-08-2014 10:35:00 18.6 C 12.57 g/m*3 18.6 C 6.4 km/h
129 13-08-2014 10:40:00 18.7 C 12.01 g/m*3 18.7 C 6.4 km/h
130 13-08-2014 10:45:00 18.8 C 12.24 g/m*3 18.8 C 8.1 km/h
131 13-08-2014 10:50:00 19 C 12.06 g/m*3 19 C 8.1 km/h
132 13-08-2014 10:55:00 19.1 C 12.13 g/m*3 19.1 C 4.8 km/h
133 13-08-2014 11:00:00 19.2 C 12.37 g/m*3 19.2 C 6.4 km/h
134 13-08-2014 11:05:00 19.2 C 12.37 g/m*3 19.2 C 3.2 km/h
135 13-08-2014 11:10:00 19.3 C 12.44 g/m*3 19.3 C 4.8 km/h
136 13-08-2014 11:15:00 19.4 C 12.51 g/m*3 19.4 C 4.8 km/h
137 13-08-2014 11:20:00 19.6 C 12.32 g/m*3 19.6 C 6.4 km/h
138 13-08-2014 11:25:00 19.7 C 12.57 g/m*3 19.7 C 4.8 km/h
139 13-08-2014 11:30:00 19.7 C 12.57 g/m*3 19.7 C 4.8 km/h
140 13-08-2014 11:35:00 19.6 C 12.49 g/m*3 19.6 C 8.1 km/h
141 13-08-2014 11:40:00 19.6 C 12.49 g/m*3 19.6 C 1.6 km/h
142 13-08-2014 11:45:00 19.6 C 12.83 g/m*3 19.6 C 0 km/h
143 13-08-2014 11:50:00 19.6 C 12.49 g/m*3 19.6 C 0 km/h
144 13-08-2014 11:55:00 19.6 C 12.66 g/m*3 19.6 C 0 km/h
145 13-08-2014 12:00:00 19.4 C 12.51 g/m*3 19.4 C 1.6 km/h
146 13-08-2014 12:05:00 19.4 C 12.68 g/m*3 19.4 C 1.6 km/h
147 13-08-2014 12:10:00 19.4 C 12.51 g/m*3 19.4 C 0 km/h
148 13-08-2014 12:15:00 19.5 C 12.75 g/m*3 19.5 C 0 km/h
149 13-08-2014 12:20:00 19.6 C 12.66 g/m*3 19.6 C 4.8 km/h
150 13-08-2014 12:25:00 19.8 C 12.47 g/m*3 19.8 C 0 km/h
Sensor: Nr:Datum:Temp:Abs-Feuchte:Windchill:Wind:
Aussen-T/F 151 13-08-2014 12:30:00 20 C 12.96 g/m*3 20 C 0 km/h
152 13-08-2014 12:35:00 20.2 C 12.76 g/m*3 20.2 C 6.4 km/h
153 13-08-2014 12:40:00 20.1 C 12.34 g/m*3 20.1 C 4.8 km/h
154 13-08-2014 12:45:00 20.1 C 12.52 g/m*3 20.1 C 4.8 km/h
155 13-08-2014 12:50:00 20.2 C 12.94 g/m*3 20.2 C 4.8 km/h
156 13-08-2014 12:55:00 20.2 C 12.94 g/m*3 20.2 C 4.8 km/h
157 13-08-2014 13:00:00 20.1 C 12.69 g/m*3 20.1 C 6.4 km/h
158 13-08-2014 13:05:00 20.1 C 13.04 g/m*3 20.1 C 4.8 km/h
159 13-08-2014 13:10:00 20.1 C 12.86 g/m*3 20.1 C 0 km/h
160 13-08-2014 13:15:00 20.1 C 13.21 g/m*3 20.1 C 0 km/h
161 13-08-2014 13:20:00 19.9 C 12.89 g/m*3 19.9 C 0 km/h
162 13-08-2014 13:25:00 19.8 C 13.84 g/m*3 19.8 C 0 km/h
163 13-08-2014 13:30:00 19.6 C 13.67 g/m*3 19.6 C 0 km/h
164 13-08-2014 13:35:00 19.3 C 13.6 g/m*3 19.3 C 0 km/h
165 13-08-2014 13:40:00 19 C 13.53 g/m*3 19 C 0 km/h
166 13-08-2014 13:45:00 18.7 C 13.61 g/m*3 18.7 C 0 km/h
167 13-08-2014 13:50:00 18.6 C 13.85 g/m*3 18.6 C 0 km/h
168 13-08-2014 13:55:00 18.5 C 13.77 g/m*3 18.5 C 0 km/h
169 13-08-2014 14:00:00 18.6 C 14.17 g/m*3 18.6 C 0 km/h
170 13-08-2014 14:05:00 18.6 C 13.37 g/m*3 18.6 C 0 km/h
171 13-08-2014 14:10:00 18.8 C 14.17 g/m*3 18.8 C 0 km/h
172 13-08-2014 14:15:00 18.8 C 14.17 g/m*3 18.8 C 0 km/h
173 13-08-2014 14:20:00 18.9 C 14.26 g/m*3 18.9 C 0 km/h
174 13-08-2014 14:25:00 19 C 14.34 g/m*3 19 C 0 km/h
175 13-08-2014 14:30:00 18.9 C 14.26 g/m*3 18.9 C 0 km/h
Sensor: Nr:Datum:Temp:Abs-Feuchte:Windchill:Wind:
Aussen-T/F 176 13-08-2014 14:35:00 18.8 C 14.17 g/m*3 18.8 C 0 km/h
177 13-08-2014 14:40:00 18.7 C 14.25 g/m*3 18.7 C 0 km/h
178 13-08-2014 14:45:00 18.6 C 14.32 g/m*3 18.6 C 0 km/h
179 13-08-2014 14:50:00 18.6 C 14.32 g/m*3 18.6 C 0 km/h
180 13-08-2014 14:55:00 18.5 C 14.24 g/m*3 18.5 C 0 km/h
181 13-08-2014 15:00:00 18.4 C 14.16 g/m*3 18.4 C 0 km/h
182 13-08-2014 15:05:00 18.3 C 14.23 g/m*3 18.3 C 0 km/h
183 13-08-2014 15:10:00 18.3 C 14.23 g/m*3 18.3 C 0 km/h
184 13-08-2014 15:15:00 18.2 C 14.3 g/m*3 18.2 C 0 km/h
185 13-08-2014 15:20:00 18.1 C 14.21 g/m*3 18.1 C 0 km/h
186 13-08-2014 15:25:00 18 C 14.13 g/m*3 18 C 0 km/h
187 13-08-2014 15:30:00 17.9 C 14.2 g/m*3 17.9 C 0 km/h
188 13-08-2014 15:35:00 17.8 C 14.12 g/m*3 17.8 C 0 km/h
189 13-08-2014 15:40:00 17.7 C 14.03 g/m*3 17.7 C 0 km/h
190 13-08-2014 15:45:00 17.7 C 14.18 g/m*3 17.7 C 0 km/h
191 13-08-2014 15:50:00 17.7 C 14.18 g/m*3 17.7 C 0 km/h
192 13-08-2014 15:55:00 17.7 C 14.03 g/m*3 17.7 C 0 km/h
193 13-08-2014 16:00:00 17.6 C 14.1 g/m*3 17.6 C 0 km/h
194 13-08-2014 16:05:00 17.6 C 13.95 g/m*3 17.6 C 0 km/h
195 13-08-2014 16:10:00 17.5 C 13.87 g/m*3 17.5 C 0 km/h
196 13-08-2014 16:15:00 17.4 C 13.78 g/m*3 17.4 C 0 km/h
197 13-08-2014 16:20:00 17.3 C 13.55 g/m*3 17.3 C 0 km/h
198 13-08-2014 16:25:00 17.2 C 13.47 g/m*3 17.2 C 0 km/h
199 13-08-2014 16:30:00 17.2 C 13.62 g/m*3 17.2 C 0 km/h
200 13-08-2014 16:35:00 17.1 C 13.54 g/m*3 17.1 C 0 km/h
Sensor: Nr:Datum:Temp:Abs-Feuchte:Windchill:Wind:
Aussen-T/F 201 13-08-2014 16:40:00 17 C 13.46 g/m*3 17 C 0 km/h
202 13-08-2014 16:45:00 16.8 C 13.15 g/m*3 16.8 C 0 km/h
203 13-08-2014 16:50:00 16.7 C 13.07 g/m*3 16.7 C 0 km/h
204 13-08-2014 16:55:00 16.6 C 13 g/m*3 16.6 C 8.1 km/h
205 13-08-2014 17:00:00 16.4 C 12.84 g/m*3 16.4 C 11.3 km/h
206 13-08-2014 17:05:00 16.3 C 12.76 g/m*3 16.3 C 8.1 km/h
207 13-08-2014 17:10:00 16.2 C 12.69 g/m*3 16.2 C 4.8 km/h
208 13-08-2014 17:15:00 16 C 12.67 g/m*3 16 C 14.5 km/h
209 13-08-2014 17:20:00 15.8 C 12.52 g/m*3 15.8 C 8.1 km/h
210 13-08-2014 17:25:00 15.7 C 12.44 g/m*3 15.7 C 8.1 km/h
211 13-08-2014 17:30:00 15.6 C 12.5 g/m*3 15.6 C 1.6 km/h
212 13-08-2014 17:35:00 15.7 C 12.58 g/m*3 15.7 C 3.2 km/h
213 13-08-2014 17:40:00 15.6 C 12.5 g/m*3 15.6 C 0 km/h
214 13-08-2014 17:45:00 15.6 C 12.63 g/m*3 15.6 C 0 km/h
215 13-08-2014 17:50:00 15.6 C 12.63 g/m*3 15.6 C 0 km/h
216 13-08-2014 17:55:00 15.7 C 12.71 g/m*3 15.7 C 0 km/h
217 13-08-2014 18:00:00 15.7 C 12.71 g/m*3 15.7 C 0 km/h
218 13-08-2014 18:05:00 15.7 C 12.71 g/m*3 15.7 C 0 km/h
219 13-08-2014 18:10:00 15.7 C 12.71 g/m*3 15.7 C 0 km/h
220 13-08-2014 18:15:00 15.7 C 12.84 g/m*3 15.7 C 0 km/h
221 13-08-2014 18:20:00 15.7 C 12.84 g/m*3 15.7 C 0 km/h
222 13-08-2014 18:25:00 15.7 C 12.84 g/m*3 15.7 C 0 km/h
223 13-08-2014 18:30:00 15.7 C 12.84 g/m*3 15.7 C 0 km/h
224 13-08-2014 18:35:00 15.7 C 12.84 g/m*3 15.7 C 0 km/h
225 13-08-2014 18:40:00 15.7 C 12.84 g/m*3 15.7 C 0 km/h
Sensor: Nr:Datum:Temp:Abs-Feuchte:Windchill:Wind:
Aussen-T/F 226 13-08-2014 18:45:00 15.7 C 12.84 g/m*3 15.7 C 0 km/h
227 13-08-2014 18:50:00 15.6 C 12.77 g/m*3 15.6 C 0 km/h
228 13-08-2014 18:55:00 15.6 C 12.77 g/m*3 15.6 C 0 km/h
229 13-08-2014 19:00:00 15.6 C 12.77 g/m*3 15.6 C 0 km/h
230 13-08-2014 19:05:00 15.7 C 12.84 g/m*3 15.7 C 0 km/h
231 13-08-2014 19:10:00 15.7 C 12.84 g/m*3 15.7 C 0 km/h
232 13-08-2014 19:15:00 15.8 C 12.92 g/m*3 15.8 C 0 km/h
233 13-08-2014 19:20:00 15.8 C 12.92 g/m*3 15.8 C 0 km/h
234 13-08-2014 19:25:00 15.8 C 12.92 g/m*3 15.8 C 0 km/h
235 13-08-2014 19:30:00 15.8 C 12.92 g/m*3 15.8 C 0 km/h
236 13-08-2014 19:35:00 15.7 C 12.84 g/m*3 15.7 C 0 km/h
237 13-08-2014 19:40:00 15.7 C 12.84 g/m*3 15.7 C 0 km/h
238 13-08-2014 19:45:00 15.7 C 12.84 g/m*3 15.7 C 0 km/h
239 13-08-2014 19:50:00 15.6 C 12.77 g/m*3 15.6 C 0 km/h
240 13-08-2014 19:55:00 15.6 C 12.9 g/m*3 15.6 C 0 km/h
241 13-08-2014 20:00:00 15.6 C 12.9 g/m*3 15.6 C 0 km/h
242 13-08-2014 20:05:00 15.5 C 12.82 g/m*3 15.5 C 0 km/h
243 13-08-2014 20:10:00 15.5 C 12.69 g/m*3 15.5 C 0 km/h
244 13-08-2014 20:15:00 15.5 C 12.82 g/m*3 15.5 C 0 km/h
245 13-08-2014 20:20:00 15.6 C 12.9 g/m*3 15.6 C 0 km/h
246 13-08-2014 20:25:00 15.6 C 12.9 g/m*3 15.6 C 0 km/h
247 13-08-2014 20:30:00 15.7 C 12.98 g/m*3 15.7 C 0 km/h
248 13-08-2014 20:35:00 15.7 C 12.98 g/m*3 15.7 C 0 km/h
249 13-08-2014 20:40:00 15.7 C 12.98 g/m*3 15.7 C 0 km/h
250 13-08-2014 20:45:00 15.7 C 12.98 g/m*3 15.7 C 0 km/h
Sensor: Nr:Datum:Temp:Abs-Feuchte:Windchill:Wind:
Aussen-T/F 251 13-08-2014 20:50:00 15.6 C 12.9 g/m*3 15.6 C 0 km/h
252 13-08-2014 20:55:00 15.5 C 12.82 g/m*3 15.5 C 0 km/h
253 13-08-2014 21:00:00 15.4 C 12.74 g/m*3 15.4 C 0 km/h
254 13-08-2014 21:05:00 15.4 C 12.74 g/m*3 15.4 C 0 km/h
255 13-08-2014 21:10:00 15.3 C 12.67 g/m*3 15.3 C 0 km/h
256 13-08-2014 21:15:00 15.3 C 12.67 g/m*3 15.3 C 0 km/h
257 13-08-2014 21:20:00 15.3 C 12.67 g/m*3 15.3 C 0 km/h
258 13-08-2014 21:25:00 15.3 C 12.67 g/m*3 15.3 C 1.6 km/h
259 13-08-2014 21:30:00 15.3 C 12.67 g/m*3 15.3 C 0 km/h
260 13-08-2014 21:35:00 15.3 C 12.54 g/m*3 15.3 C 0 km/h
261 13-08-2014 21:40:00 15.3 C 12.54 g/m*3 15.3 C 0 km/h
262 13-08-2014 21:45:00 15.2 C 12.46 g/m*3 15.2 C 0 km/h
263 13-08-2014 21:50:00 15.2 C 12.46 g/m*3 15.2 C 0 km/h
264 13-08-2014 21:55:00 15.1 C 12.26 g/m*3 15.1 C 0 km/h
265 13-08-2014 22:00:00 15.1 C 12.26 g/m*3 15.1 C 0 km/h
266 13-08-2014 22:05:00 15.1 C 12.26 g/m*3 15.1 C 0 km/h
267 13-08-2014 22:10:00 15 C 12.18 g/m*3 15 C 0 km/h
268 13-08-2014 22:15:00 15.1 C 12.26 g/m*3 15.1 C 0 km/h
269 13-08-2014 22:20:00 15.1 C 12.26 g/m*3 15.1 C 0 km/h
270 13-08-2014 22:25:00 15.2 C 12.33 g/m*3 15.2 C 0 km/h
271 13-08-2014 22:30:00 15.2 C 12.33 g/m*3 15.2 C 0 km/h
272 13-08-2014 22:35:00 15.2 C 12.33 g/m*3 15.2 C 0 km/h
273 13-08-2014 22:40:00 15.2 C 12.33 g/m*3 15.2 C 0 km/h
274 13-08-2014 22:45:00 15.2 C 12.33 g/m*3 15.2 C 0 km/h
275 13-08-2014 22:50:00 15.1 C 12.26 g/m*3 15.1 C 0 km/h
Sensor: Nr:Datum:Temp:Abs-Feuchte:Windchill:Wind:
Aussen-T/F 276 13-08-2014 22:55:00 15.1 C 12.26 g/m*3 15.1 C 0 km/h
277 13-08-2014 23:00:00 15.1 C 12.26 g/m*3 15.1 C 0 km/h
278 13-08-2014 23:05:00 15.1 C 12.26 g/m*3 15.1 C 0 km/h
279 13-08-2014 23:10:00 15.2 C 12.33 g/m*3 15.2 C 12.9 km/h
280 13-08-2014 23:15:00 15.2 C 12.33 g/m*3 15.2 C 1.6 km/h
281 13-08-2014 23:20:00 15.2 C 12.33 g/m*3 15.2 C 9.7 km/h
282 13-08-2014 23:25:00 15.2 C 12.33 g/m*3 15.2 C 9.7 km/h
283 13-08-2014 23:30:00 15.2 C 12.2 g/m*3 15.2 C 3.2 km/h
284 13-08-2014 23:35:00 15.2 C 12.2 g/m*3 15.2 C 6.4 km/h
285 13-08-2014 23:40:00 15.1 C 12.13 g/m*3 15.1 C 6.4 km/h
286 13-08-2014 23:45:00 15.1 C 12.13 g/m*3 15.1 C 3.2 km/h
287 13-08-2014 23:50:00 15.1 C 12.13 g/m*3 15.1 C 3.2 km/h
288 13-08-2014 23:55:00 15.1 C 12.13 g/m*3 15.1 C 3.2 km/h
289 14-08-2014 00:00:00 15.1 C 12.13 g/m*3 15.1 C 3.2 km/h
290 14-08-2014 00:05:00 15.1 C 12 g/m*3 15.1 C 4.8 km/h
291 14-08-2014 00:10:00 15.1 C 12 g/m*3 15.1 C 3.2 km/h
292 14-08-2014 00:15:00 15.1 C 12 g/m*3 15.1 C 3.2 km/h
293 14-08-2014 00:20:00 15.1 C 12 g/m*3 15.1 C 8.1 km/h
294 14-08-2014 00:25:00 15 C 11.93 g/m*3 15 C 3.2 km/h
295 14-08-2014 00:30:00 14.9 C 11.85 g/m*3 14.9 C 1.6 km/h
296 14-08-2014 00:35:00 14.8 C 11.78 g/m*3 14.8 C 3.2 km/h
297 14-08-2014 00:40:00 14.8 C 11.78 g/m*3 14.8 C 3.2 km/h
298 14-08-2014 00:45:00 14.8 C 11.78 g/m*3 14.8 C 3.2 km/h
299 14-08-2014 00:50:00 14.8 C 11.78 g/m*3 14.8 C 3.2 km/h
300 14-08-2014 00:55:00 14.8 C 11.65 g/m*3 14.8 C 4.8 km/h
Sensor: Nr:Datum:Temp:Abs-Feuchte:Windchill:Wind:
Aussen-T/F 301 14-08-2014 01:00:00 14.8 C 11.65 g/m*3 14.8 C 4.8 km/h
302 14-08-2014 01:05:00 14.8 C 11.53 g/m*3 14.8 C 6.4 km/h
303 14-08-2014 01:10:00 14.8 C 11.53 g/m*3 14.8 C 4.8 km/h
304 14-08-2014 01:15:00 14.8 C 11.53 g/m*3 14.8 C 3.2 km/h
305 14-08-2014 01:20:00 14.8 C 11.65 g/m*3 14.8 C 3.2 km/h
306 14-08-2014 01:25:00 14.7 C 11.58 g/m*3 14.7 C 3.2 km/h
307 14-08-2014 01:30:00 14.6 C 11.51 g/m*3 14.6 C 1.6 km/h
308 14-08-2014 01:35:00 14.5 C 11.57 g/m*3 14.5 C 0 km/h
309 14-08-2014 01:40:00 14.4 C 11.5 g/m*3 14.4 C 0 km/h
310 14-08-2014 01:45:00 14.3 C 11.43 g/m*3 14.3 C 0 km/h
311 14-08-2014 01:50:00 14.3 C 11.55 g/m*3 14.3 C 0 km/h
312 14-08-2014 01:55:00 14.2 C 11.48 g/m*3 14.2 C 0 km/h
313 14-08-2014 02:00:00 14.1 C 11.41 g/m*3 14.1 C 0 km/h
314 14-08-2014 02:05:00 14.1 C 11.41 g/m*3 14.1 C 0 km/h
315 14-08-2014 02:10:00 14.1 C 11.41 g/m*3 14.1 C 0 km/h
316 14-08-2014 02:15:00 14 C 11.34 g/m*3 14 C 0 km/h
317 14-08-2014 02:20:00 13.9 C 11.39 g/m*3 13.9 C 0 km/h
318 14-08-2014 02:25:00 13.9 C 11.39 g/m*3 13.9 C 0 km/h
319 14-08-2014 02:30:00 13.8 C 11.32 g/m*3 13.8 C 0 km/h
320 14-08-2014 02:35:00 13.8 C 11.32 g/m*3 13.8 C 0 km/h
321 14-08-2014 02:40:00 13.7 C 11.25 g/m*3 13.7 C 0 km/h
322 14-08-2014 02:45:00 13.7 C 11.37 g/m*3 13.7 C 0 km/h
323 14-08-2014 02:50:00 13.6 C 11.18 g/m*3 13.6 C 0 km/h
324 14-08-2014 02:55:00 13.6 C 11.3 g/m*3 13.6 C 0 km/h
325 14-08-2014 03:00:00 13.5 C 11.23 g/m*3 13.5 C 0 km/h
Sensor: Nr:Datum:Temp:Abs-Feuchte:Windchill:Wind:
Aussen-T/F 326 14-08-2014 03:05:00 13.5 C 11.23 g/m*3 13.5 C 0 km/h
327 14-08-2014 03:10:00 13.4 C 11.16 g/m*3 13.4 C 0 km/h
328 14-08-2014 03:15:00 13.4 C 11.16 g/m*3 13.4 C 0 km/h
329 14-08-2014 03:20:00 13.4 C 11.16 g/m*3 13.4 C 0 km/h
330 14-08-2014 03:25:00 13.4 C 11.16 g/m*3 13.4 C 0 km/h
331 14-08-2014 03:30:00 13.3 C 11.09 g/m*3 13.3 C 0 km/h
332 14-08-2014 03:35:00 13.3 C 11.09 g/m*3 13.3 C 0 km/h
333 14-08-2014 03:40:00 13.3 C 11.09 g/m*3 13.3 C 0 km/h
334 14-08-2014 03:45:00 13.3 C 11.09 g/m*3 13.3 C 0 km/h
335 14-08-2014 03:50:00 13.2 C 11.14 g/m*3 13.2 C 0 km/h
336 14-08-2014 03:55:00 13.2 C 11.14 g/m*3 13.2 C 0 km/h
337 14-08-2014 04:00:00 13.1 C 11.07 g/m*3 13.1 C 0 km/h
338 14-08-2014 04:05:00 13.1 C 11.07 g/m*3 13.1 C 0 km/h
339 14-08-2014 04:10:00 13.1 C 11.07 g/m*3 13.1 C 0 km/h
340 14-08-2014 04:15:00 13.2 C 11.14 g/m*3 13.2 C 0 km/h
341 14-08-2014 04:20:00 13.2 C 11.14 g/m*3 13.2 C 0 km/h
342 14-08-2014 04:25:00 13.3 C 11.21 g/m*3 13.3 C 1.6 km/h
343 14-08-2014 04:30:00 13.3 C 11.21 g/m*3 13.3 C 0 km/h
344 14-08-2014 04:35:00 13.3 C 11.21 g/m*3 13.3 C 0 km/h
345 14-08-2014 04:40:00 13.3 C 11.21 g/m*3 13.3 C 0 km/h
346 14-08-2014 04:45:00 13.2 C 11.14 g/m*3 13.2 C 0 km/h
347 14-08-2014 04:50:00 13.2 C 11.14 g/m*3 13.2 C 0 km/h
348 14-08-2014 04:55:00 13.2 C 11.14 g/m*3 13.2 C 0 km/h
349 14-08-2014 05:00:00 13.2 C 11.14 g/m*3 13.2 C 0 km/h
350 14-08-2014 05:05:00 13.2 C 11.14 g/m*3 13.2 C 0 km/h
Sensor: Nr:Datum:Temp:Abs-Feuchte:Windchill:Wind:
Aussen-T/F 351 14-08-2014 05:10:00 13.2 C 11.14 g/m*3 13.2 C 0 km/h
352 14-08-2014 05:15:00 13.2 C 11.14 g/m*3 13.2 C 0 km/h
353 14-08-2014 05:20:00 13.2 C 11.14 g/m*3 13.2 C 0 km/h
354 14-08-2014 05:25:00 13.1 C 11.07 g/m*3 13.1 C 0 km/h
355 14-08-2014 05:30:00 13 C 11 g/m*3 13 C 0 km/h
356 14-08-2014 05:35:00 13 C 11 g/m*3 13 C 0 km/h
357 14-08-2014 05:40:00 13 C 11 g/m*3 13 C 0 km/h
358 14-08-2014 05:45:00 12.9 C 10.93 g/m*3 12.9 C 0 km/h
359 14-08-2014 05:50:00 12.9 C 10.93 g/m*3 12.9 C 0 km/h
360 14-08-2014 05:55:00 12.9 C 10.93 g/m*3 12.9 C 0 km/h
361 14-08-2014 06:00:00 12.9 C 10.93 g/m*3 12.9 C 0 km/h
362 14-08-2014 06:05:00 13 C 11 g/m*3 13 C 0 km/h
363 14-08-2014 06:10:00 13 C 11 g/m*3 13 C 0 km/h
364 14-08-2014 06:15:00 13 C 11 g/m*3 13 C 0 km/h
365 14-08-2014 06:20:00 13 C 11 g/m*3 13 C 0 km/h
366 14-08-2014 06:25:00 12.9 C 10.93 g/m*3 12.9 C 0 km/h
367 14-08-2014 06:30:00 12.9 C 10.93 g/m*3 12.9 C 0 km/h
368 14-08-2014 06:35:00 12.9 C 10.93 g/m*3 12.9 C 0 km/h
369 14-08-2014 06:40:00 12.9 C 10.93 g/m*3 12.9 C 0 km/h
370 14-08-2014 06:45:00 12.9 C 10.93 g/m*3 12.9 C 0 km/h
371 14-08-2014 06:50:00 12.8 C 10.87 g/m*3 12.8 C 0 km/h
372 14-08-2014 06:55:00 12.8 C 10.87 g/m*3 12.8 C 0 km/h
373 14-08-2014 07:00:00 12.9 C 10.93 g/m*3 12.9 C 0 km/h
374 14-08-2014 07:05:00 13.1 C 11.07 g/m*3 13.1 C 0 km/h
375 14-08-2014 07:10:00 13.2 C 11.14 g/m*3 13.2 C 0 km/h
Sensor: Nr:Datum:Temp:Abs-Feuchte:Windchill:Wind:
Aussen-T/F 376 14-08-2014 07:15:00 13.3 C 11.21 g/m*3 13.3 C 0 km/h
377 14-08-2014 07:20:00 13.4 C 11.28 g/m*3 13.4 C 0 km/h
378 14-08-2014 07:25:00 13.5 C 11.35 g/m*3 13.5 C 0 km/h
379 14-08-2014 07:30:00 13.6 C 11.42 g/m*3 13.6 C 1.6 km/h
380 14-08-2014 07:35:00 13.7 C 11.49 g/m*3 13.7 C 0 km/h
381 14-08-2014 07:40:00 13.8 C 11.56 g/m*3 13.8 C 0 km/h
382 14-08-2014 07:45:00 13.9 C 11.51 g/m*3 13.9 C 8.1 km/h
383 14-08-2014 07:50:00 13.9 C 11.39 g/m*3 13.9 C 4.8 km/h
384 14-08-2014 07:55:00 14.1 C 11.41 g/m*3 14.1 C 6.4 km/h
385 14-08-2014 08:00:00 14.2 C 11.36 g/m*3 14.2 C 1.6 km/h
386 14-08-2014 08:05:00 14.4 C 11.25 g/m*3 14.4 C 8.1 km/h
387 14-08-2014 08:10:00 14.7 C 11.33 g/m*3 14.7 C 6.4 km/h
388 14-08-2014 08:15:00 14.8 C 11.4 g/m*3 14.8 C 4.8 km/h
389 14-08-2014 08:20:00 14.9 C 11.34 g/m*3 14.9 C 8.1 km/h
390 14-08-2014 08:25:00 15 C 11.41 g/m*3 15 C 12.9 km/h
391 14-08-2014 08:30:00 15.1 C 11.35 g/m*3 15.1 C 12.9 km/h
392 14-08-2014 08:35:00 15.1 C 11.35 g/m*3 15.1 C 1.6 km/h
393 14-08-2014 08:40:00 15 C 11.28 g/m*3 15 C 6.4 km/h
394 14-08-2014 08:45:00 15 C 11.28 g/m*3 15 C 1.6 km/h
395 14-08-2014 08:50:00 15.1 C 11.48 g/m*3 15.1 C 0 km/h
396 14-08-2014 08:55:00 15.1 C 11.48 g/m*3 15.1 C 0 km/h
397 14-08-2014 09:00:00 15 C 11.41 g/m*3 15 C 6.4 km/h
398 14-08-2014 09:05:00 15.1 C 11.74 g/m*3 15.1 C 1.6 km/h
399 14-08-2014 09:10:00 15.1 C 11.61 g/m*3 15.1 C 1.6 km/h
400 14-08-2014 09:15:00 15.3 C 11.62 g/m*3 15.3 C 8.1 km/h
Sensor: Nr:Datum:Temp:Abs-Feuchte:Windchill:Wind:
Aussen-T/F 401 14-08-2014 09:20:00 15.4 C 11.56 g/m*3 15.4 C 11.3 km/h
402 14-08-2014 09:25:00 15.6 C 11.7 g/m*3 15.6 C 3.2 km/h
403 14-08-2014 09:30:00 15.6 C 11.57 g/m*3 15.6 C 0 km/h
404 14-08-2014 09:35:00 15.6 C 11.57 g/m*3 15.6 C 9.7 km/h
405 14-08-2014 09:40:00 15.7 C 11.77 g/m*3 15.7 C 0 km/h
406 14-08-2014 09:45:00 15.8 C 11.71 g/m*3 15.8 C 8.1 km/h
407 14-08-2014 09:50:00 15.9 C 11.51 g/m*3 15.9 C 8.1 km/h
408 14-08-2014 09:55:00 16.1 C 11.65 g/m*3 16.1 C 3.2 km/h
409 14-08-2014 10:00:00 16.2 C 11.72 g/m*3 16.2 C 4.8 km/h
410 14-08-2014 10:05:00 16.3 C 11.79 g/m*3 16.3 C 6.4 km/h
411 14-08-2014 10:10:00 16.4 C 11.86 g/m*3 16.4 C 6.4 km/h
412 14-08-2014 10:15:00 16.4 C 11.86 g/m*3 16.4 C 4.8 km/h
413 14-08-2014 10:20:00 16.4 C 11.72 g/m*3 16.4 C 9.7 km/h
414 14-08-2014 10:25:00 16.4 C 11.45 g/m*3 16.4 C 11.3 km/h
415 14-08-2014 10:30:00 16.4 C 11.31 g/m*3 16.4 C 12.9 km/h
416 14-08-2014 10:35:00 16.5 C 11.23 g/m*3 16.5 C 19.3 km/h
417 14-08-2014 10:40:00 16.7 C 11.37 g/m*3 16.7 C 16.1 km/h
418 14-08-2014 10:45:00 16.8 C 11.44 g/m*3 16.8 C 17.7 km/h
419 14-08-2014 10:50:00 16.9 C 11.22 g/m*3 16.9 C 12.9 km/h
420 14-08-2014 10:55:00 16.8 C 11.29 g/m*3 16.8 C 9.7 km/h
421 14-08-2014 11:00:00 16.8 C 11.44 g/m*3 16.8 C 9.7 km/h
422 14-08-2014 11:05:00 16.9 C 11.36 g/m*3 16.9 C 12.9 km/h
423 14-08-2014 11:10:00 16.9 C 11.51 g/m*3 16.9 C 11.3 km/h
424 14-08-2014 11:15:00 17 C 11.29 g/m*3 17 C 12.9 km/h
425 14-08-2014 11:20:00 17 C 11.43 g/m*3 17 C 12.9 km/h
Sensor: Nr:Datum:Temp:Abs-Feuchte:Windchill:Wind:
Aussen-T/F 426 14-08-2014 11:25:00 17.1 C 11.21 g/m*3 17.1 C 8.1 km/h
427 14-08-2014 11:30:00 17.2 C 11.42 g/m*3 17.2 C 17.7 km/h
428 14-08-2014 11:35:00 17.2 C 11.28 g/m*3 17.2 C 11.3 km/h
429 14-08-2014 11:40:00 17.3 C 11.79 g/m*3 17.3 C 4.8 km/h
430 14-08-2014 11:45:00 17.5 C 11.48 g/m*3 17.5 C 11.3 km/h
431 14-08-2014 11:50:00 17.8 C 11.38 g/m*3 17.8 C 11.3 km/h
432 14-08-2014 11:55:00 17.8 C 11.23 g/m*3 17.8 C 8.1 km/h
433 14-08-2014 12:00:00 18.1 C 11.59 g/m*3 18.1 C 9.7 km/h
434 14-08-2014 12:05:00 18.2 C 11.5 g/m*3 18.2 C 16.1 km/h
435 14-08-2014 12:10:00 18.3 C 11.26 g/m*3 18.3 C 17.7 km/h
436 14-08-2014 12:15:00 18.4 C 11.64 g/m*3 18.4 C 11.3 km/h
437 14-08-2014 12:20:00 18.7 C 11.69 g/m*3 18.7 C 14.5 km/h
438 14-08-2014 12:25:00 18.9 C 11.83 g/m*3 18.9 C 11.3 km/h
439 14-08-2014 12:30:00 19.1 C 11.97 g/m*3 19.1 C 11.3 km/h
440 14-08-2014 12:35:00 19.3 C 11.78 g/m*3 19.3 C 20.9 km/h
441 14-08-2014 12:40:00 19.4 C 11.51 g/m*3 19.4 C 17.7 km/h
442 14-08-2014 12:45:00 19.6 C 11.65 g/m*3 19.6 C 17.7 km/h
443 14-08-2014 12:50:00 19.8 C 11.61 g/m*3 19.8 C 17.7 km/h
444 14-08-2014 12:55:00 19.8 C 11.44 g/m*3 19.8 C 11.3 km/h
445 14-08-2014 13:00:00 19.8 C 12.13 g/m*3 19.8 C 8.1 km/h
446 14-08-2014 13:05:00 20.1 C 11.99 g/m*3 20.1 C 12.9 km/h
447 14-08-2014 13:10:00 20.3 C 11.61 g/m*3 20.3 C 17.7 km/h
448 14-08-2014 13:15:00 20.2 C 11.54 g/m*3 20.2 C 12.9 km/h
449 14-08-2014 13:20:00 19.9 C 11.68 g/m*3 19.9 C 14.5 km/h
450 14-08-2014 13:25:00 19.6 C 10.97 g/m*3 19.6 C 16.1 km/h
Sensor: Nr:Datum:Temp:Abs-Feuchte:Windchill:Wind:
Aussen-T/F 451 14-08-2014 13:30:00 19.3 C 11.28 g/m*3 19.3 C 11.3 km/h
452 14-08-2014 13:35:00 19.1 C 11.64 g/m*3 19.1 C 9.7 km/h
453 14-08-2014 13:40:00 18.9 C 11.66 g/m*3 18.9 C 14.5 km/h
454 14-08-2014 13:45:00 19 C 11.9 g/m*3 19 C 12.9 km/h
455 14-08-2014 13:50:00 19.1 C 12.13 g/m*3 19.1 C 14.5 km/h
456 14-08-2014 13:55:00 19 C 11.9 g/m*3 19 C 11.3 km/h
457 14-08-2014 14:00:00 19.1 C 11.8 g/m*3 19.1 C 12.9 km/h
458 14-08-2014 14:05:00 19.3 C 11.94 g/m*3 19.3 C 16.1 km/h
459 14-08-2014 14:10:00 19.3 C 11.78 g/m*3 19.3 C 20.9 km/h
460 14-08-2014 14:15:00 19.3 C 12.11 g/m*3 19.3 C 11.3 km/h
461 14-08-2014 14:20:00 19.4 C 12.01 g/m*3 19.4 C 14.5 km/h
462 14-08-2014 14:25:00 19.5 C 12.42 g/m*3 19.5 C 16.1 km/h
463 14-08-2014 14:30:00 19.8 C 12.3 g/m*3 19.8 C 14.5 km/h
464 14-08-2014 14:35:00 19.9 C 12.2 g/m*3 19.9 C 19.3 km/h
465 14-08-2014 14:40:00 20.2 C 12.24 g/m*3 20.2 C 11.3 km/h
466 14-08-2014 14:45:00 20.3 C 11.96 g/m*3 20.3 C 17.7 km/h
467 14-08-2014 14:50:00 20.5 C 11.92 g/m*3 20.5 C 17.7 km/h
468 14-08-2014 14:55:00 20.7 C 12.06 g/m*3 20.7 C 8.1 km/h
469 14-08-2014 15:00:00 20.4 C 11.85 g/m*3 20.4 C 9.7 km/h
470 14-08-2014 15:05:00 20 C 11.92 g/m*3 20 C 9.7 km/h
471 14-08-2014 15:10:00 19.8 C 11.79 g/m*3 19.8 C 11.3 km/h
472 14-08-2014 15:15:00 20.1 C 11.99 g/m*3 20.1 C 11.3 km/h
473 14-08-2014 15:20:00 20.5 C 11.92 g/m*3 20.5 C 12.9 km/h
474 14-08-2014 15:25:00 20.8 C 13.04 g/m*3 20.8 C 9.7 km/h
475 14-08-2014 15:30:00 20.9 C 12.2 g/m*3 20.9 C 16.1 km/h
Sensor: Nr:Datum:Temp:Abs-Feuchte:Windchill:Wind:
Aussen-T/F 476 14-08-2014 15:35:00 20.6 C 11.45 g/m*3 20.6 C 19.3 km/h
477 14-08-2014 15:40:00 20.1 C 11.47 g/m*3 20.1 C 8.1 km/h
478 14-08-2014 15:45:00 19.8 C 11.44 g/m*3 19.8 C 11.3 km/h
479 14-08-2014 15:50:00 19.4 C 11.51 g/m*3 19.4 C 12.9 km/h
480 14-08-2014 15:55:00 19.1 C 11.8 g/m*3 19.1 C 16.1 km/h
481 14-08-2014 16:00:00 18.7 C 12.33 g/m*3 18.7 C 11.3 km/h
482 14-08-2014 16:05:00 18.3 C 11.26 g/m*3 18.3 C 6.4 km/h
483 14-08-2014 16:10:00 18.2 C 11.35 g/m*3 18.2 C 3.2 km/h
484 14-08-2014 16:15:00 18.4 C 11.64 g/m*3 18.4 C 6.4 km/h
485 14-08-2014 16:20:00 18.9 C 11.99 g/m*3 18.9 C 8.1 km/h
486 14-08-2014 16:25:00 19.6 C 11.82 g/m*3 19.6 C 4.8 km/h
487 14-08-2014 16:30:00 20.2 C 11.89 g/m*3 20.2 C 8.1 km/h
488 14-08-2014 16:35:00 20.6 C 11.99 g/m*3 20.6 C 8.1 km/h
489 14-08-2014 16:40:00 21.1 C 11.98 g/m*3 21.1 C 11.3 km/h
490 14-08-2014 16:45:00 20.8 C 11.59 g/m*3 20.8 C 11.3 km/h
491 14-08-2014 16:50:00 20.4 C 11.68 g/m*3 20.4 C 3.2 km/h
492 14-08-2014 16:55:00 20.4 C 11.85 g/m*3 20.4 C 4.8 km/h
493 14-08-2014 17:00:00 21.1 C 12.34 g/m*3 21.1 C 6.4 km/h
494 14-08-2014 17:05:00 21.4 C 12.37 g/m*3 21.4 C 8.1 km/h
495 14-08-2014 17:10:00 21.6 C 11.95 g/m*3 21.6 C 4.8 km/h
496 14-08-2014 17:15:00 21.9 C 11 g/m*3 21.9 C 12.9 km/h
497 14-08-2014 17:20:00 21.9 C 11 g/m*3 21.9 C 11.3 km/h
498 14-08-2014 17:25:00 21.5 C 11.13 g/m*3 21.5 C 11.3 km/h
499 14-08-2014 17:30:00 21.1 C 11.24 g/m*3 21.1 C 3.2 km/h
500 14-08-2014 17:35:00 20.6 C 11.99 g/m*3 20.6 C 6.4 km/h
Sensor: Nr:Datum:Temp:Abs-Feuchte:Windchill:Wind:
Aussen-T/F 501 14-08-2014 17:40:00 20.2 C 11.54 g/m*3 20.2 C 3.2 km/h
502 14-08-2014 17:45:00 19.8 C 11.61 g/m*3 19.8 C 4.8 km/h
503 14-08-2014 17:50:00 19.6 C 12.66 g/m*3 19.6 C 1.6 km/h
504 14-08-2014 17:55:00 19.3 C 12.11 g/m*3 19.3 C 4.8 km/h
505 14-08-2014 18:00:00 19.5 C 11.92 g/m*3 19.5 C 4.8 km/h
506 14-08-2014 18:05:00 19.7 C 11.72 g/m*3 19.7 C 6.4 km/h
507 14-08-2014 18:10:00 19.6 C 13.17 g/m*3 19.6 C 4.8 km/h
508 14-08-2014 18:15:00 19.4 C 12.35 g/m*3 19.4 C 4.8 km/h
509 14-08-2014 18:20:00 19.8 C 11.61 g/m*3 19.8 C 9.7 km/h
510 14-08-2014 18:25:00 20 C 12.44 g/m*3 20 C 4.8 km/h
511 14-08-2014 18:30:00 19.8 C 11.61 g/m*3 19.8 C 8.1 km/h
512 14-08-2014 18:35:00 19.5 C 11.24 g/m*3 19.5 C 11.3 km/h
513 14-08-2014 18:40:00 19.1 C 10.98 g/m*3 19.1 C 24.1 km/h
514 14-08-2014 18:45:00 18.4 C 11.17 g/m*3 18.4 C 16.1 km/h
515 14-08-2014 18:50:00 17.8 C 10.93 g/m*3 17.8 C 20.9 km/h
516 14-08-2014 18:55:00 17.4 C 11.12 g/m*3 17.4 C 8.1 km/h
517 14-08-2014 19:00:00 17.1 C 10.92 g/m*3 17.1 C 6.4 km/h
518 14-08-2014 19:05:00 16.8 C 11.15 g/m*3 16.8 C 4.8 km/h
519 14-08-2014 19:10:00 16.7 C 11.37 g/m*3 16.7 C 4.8 km/h
520 14-08-2014 19:15:00 16.5 C 11.37 g/m*3 16.5 C 4.8 km/h
521 14-08-2014 19:20:00 16.3 C 11.38 g/m*3 16.3 C 1.6 km/h
522 14-08-2014 19:25:00 16.2 C 11.31 g/m*3 16.2 C 1.6 km/h
523 14-08-2014 19:30:00 16.1 C 11.38 g/m*3 16.1 C 1.6 km/h
524 14-08-2014 19:35:00 16.1 C 11.38 g/m*3 16.1 C 1.6 km/h
525 14-08-2014 19:40:00 16 C 11.31 g/m*3 16 C 3.2 km/h
Sensor: Nr:Datum:Temp:Abs-Feuchte:Windchill:Wind:
Aussen-T/F 526 14-08-2014 19:45:00 16 C 11.31 g/m*3 16 C 0 km/h
527 14-08-2014 20:05:00 15.7 C 11.37 g/m*3 15.7 C 1.6 km/h
528 14-08-2014 20:10:00 15.6 C 11.3 g/m*3 15.6 C 1.6 km/h
529 14-08-2014 20:15:00 15.6 C 11.44 g/m*3 15.6 C 0 km/h
530 14-08-2014 20:20:00 15.4 C 11.3 g/m*3 15.4 C 0 km/h
531 14-08-2014 20:25:00 15.3 C 11.36 g/m*3 15.3 C 0 km/h
532 14-08-2014 20:30:00 15.2 C 11.42 g/m*3 15.2 C 0 km/h
533 14-08-2014 20:35:00 15.1 C 11.35 g/m*3 15.1 C 0 km/h
534 14-08-2014 20:40:00 15 C 11.41 g/m*3 15 C 0 km/h
535 14-08-2014 20:45:00 14.9 C 11.34 g/m*3 14.9 C 0 km/h
536 14-08-2014 20:50:00 14.9 C 11.34 g/m*3 14.9 C 0 km/h
537 14-08-2014 20:55:00 14.8 C 11.27 g/m*3 14.8 C 0 km/h
538 14-08-2014 21:00:00 14.8 C 11.4 g/m*3 14.8 C 0 km/h
539 14-08-2014 21:05:00 14.8 C 11.4 g/m*3 14.8 C 0 km/h
540 14-08-2014 21:10:00 14.7 C 11.33 g/m*3 14.7 C 0 km/h
541 14-08-2014 21:15:00 14.7 C 11.33 g/m*3 14.7 C 0 km/h
542 14-08-2014 21:20:00 14.6 C 11.26 g/m*3 14.6 C 0 km/h
543 14-08-2014 21:25:00 14.6 C 11.26 g/m*3 14.6 C 0 km/h
544 14-08-2014 21:30:00 14.6 C 11.26 g/m*3 14.6 C 0 km/h
545 14-08-2014 21:50:00 14.8 C 11.27 g/m*3 14.8 C 0 km/h
546 14-08-2014 21:55:00 14.8 C 11.4 g/m*3 14.8 C 0 km/h
547 14-08-2014 22:00:00 14.8 C 11.4 g/m*3 14.8 C 0 km/h
548 14-08-2014 22:05:00 14.7 C 11.33 g/m*3 14.7 C 0 km/h
549 14-08-2014 22:10:00 14.7 C 11.33 g/m*3 14.7 C 0 km/h
550 14-08-2014 22:15:00 14.7 C 11.33 g/m*3 14.7 C 0 km/h
Sensor: Nr:Datum:Temp:Abs-Feuchte:Windchill:Wind:
Aussen-T/F 551 14-08-2014 22:20:00 14.7 C 11.46 g/m*3 14.7 C 0 km/h
552 14-08-2014 22:25:00 14.7 C 11.46 g/m*3 14.7 C 0 km/h
553 14-08-2014 22:30:00 14.7 C 11.46 g/m*3 14.7 C 0 km/h
554 14-08-2014 22:35:00 14.7 C 11.46 g/m*3 14.7 C 0 km/h
555 14-08-2014 22:40:00 14.7 C 11.46 g/m*3 14.7 C 0 km/h
556 14-08-2014 22:45:00 14.7 C 11.46 g/m*3 14.7 C 0 km/h
557 14-08-2014 22:50:00 14.7 C 11.46 g/m*3 14.7 C 0 km/h
558 14-08-2014 22:55:00 14.7 C 11.46 g/m*3 14.7 C 0 km/h
559 14-08-2014 23:00:00 14.6 C 11.39 g/m*3 14.6 C 0 km/h
560 14-08-2014 23:05:00 14.6 C 11.39 g/m*3 14.6 C 0 km/h
561 14-08-2014 23:10:00 14.7 C 11.46 g/m*3 14.7 C 0 km/h
562 14-08-2014 23:15:00 14.6 C 11.14 g/m*3 14.6 C 0 km/h
563 14-08-2014 23:20:00 14.7 C 11.33 g/m*3 14.7 C 0 km/h
564 14-08-2014 23:25:00 14.7 C 11.33 g/m*3 14.7 C 0 km/h
565 14-08-2014 23:30:00 14.7 C 11.33 g/m*3 14.7 C 0 km/h
566 14-08-2014 23:35:00 14.7 C 11.33 g/m*3 14.7 C 0 km/h
567 14-08-2014 23:40:00 14.7 C 11.33 g/m*3 14.7 C 0 km/h
568 14-08-2014 23:45:00 14.6 C 10.89 g/m*3 14.6 C 4.8 km/h
569 14-08-2014 23:50:00 14.7 C 10.95 g/m*3 14.7 C 6.4 km/h
570 14-08-2014 23:55:00 14.8 C 11.15 g/m*3 14.8 C 0 km/h
571 15-08-2014 00:00:00 14.7 C 11.08 g/m*3 14.7 C 0 km/h
572 15-08-2014 00:05:00 14.5 C 11.07 g/m*3 14.5 C 0 km/h
573 15-08-2014 00:10:00 14.3 C 11.06 g/m*3 14.3 C 0 km/h
574 15-08-2014 00:15:00 14.2 C 10.99 g/m*3 14.2 C 0 km/h
575 15-08-2014 00:20:00 14.2 C 10.87 g/m*3 14.2 C 4.8 km/h
Sensor: Nr:Datum:Temp:Abs-Feuchte:Windchill:Wind:
Aussen-T/F 576 15-08-2014 00:25:00 14.2 C 10.87 g/m*3 14.2 C 4.8 km/h
577 15-08-2014 00:30:00 14.2 C 10.87 g/m*3 14.2 C 0 km/h
578 15-08-2014 00:35:00 14.2 C 10.87 g/m*3 14.2 C 0 km/h
579 15-08-2014 00:40:00 14.2 C 10.87 g/m*3 14.2 C 0 km/h
580 15-08-2014 00:45:00 14.2 C 10.87 g/m*3 14.2 C 0 km/h
581 15-08-2014 00:50:00 14.2 C 10.87 g/m*3 14.2 C 0 km/h
582 15-08-2014 00:55:00 14.1 C 10.8 g/m*3 14.1 C 0 km/h
583 15-08-2014 01:00:00 14 C 10.74 g/m*3 14 C 0 km/h
584 15-08-2014 01:05:00 13.9 C 10.79 g/m*3 13.9 C 0 km/h
585 15-08-2014 01:10:00 13.9 C 10.79 g/m*3 13.9 C 0 km/h
586 15-08-2014 01:15:00 13.8 C 10.72 g/m*3 13.8 C 0 km/h
587 15-08-2014 01:20:00 13.6 C 10.59 g/m*3 13.6 C 0 km/h
588 15-08-2014 01:25:00 13.5 C 10.53 g/m*3 13.5 C 0 km/h
589 15-08-2014 01:30:00 13.4 C 10.58 g/m*3 13.4 C 0 km/h
590 15-08-2014 01:35:00 13.4 C 10.58 g/m*3 13.4 C 0 km/h
591 15-08-2014 01:40:00 13.3 C 10.51 g/m*3 13.3 C 0 km/h
592 15-08-2014 01:45:00 13.3 C 10.51 g/m*3 13.3 C 0 km/h
593 15-08-2014 01:50:00 13.3 C 10.51 g/m*3 13.3 C 0 km/h
594 15-08-2014 01:55:00 13.3 C 10.51 g/m*3 13.3 C 0 km/h
595 15-08-2014 02:00:00 13.4 C 10.46 g/m*3 13.4 C 0 km/h
596 15-08-2014 02:05:00 13.6 C 10.59 g/m*3 13.6 C 0 km/h
597 15-08-2014 02:10:00 13.6 C 10.59 g/m*3 13.6 C 0 km/h
598 15-08-2014 02:15:00 13.6 C 10.59 g/m*3 13.6 C 0 km/h
599 15-08-2014 02:20:00 13.6 C 10.59 g/m*3 13.6 C 3.2 km/h
600 15-08-2014 02:25:00 13.7 C 10.66 g/m*3 13.7 C 0 km/h
Sensor: Nr:Datum:Temp:Abs-Feuchte:Windchill:Wind:
Aussen-T/F 601 15-08-2014 02:30:00 13.7 C 10.54 g/m*3 13.7 C 0 km/h
602 15-08-2014 02:35:00 13.6 C 10.59 g/m*3 13.6 C 0 km/h
603 15-08-2014 02:40:00 13.6 C 10.59 g/m*3 13.6 C 0 km/h
604 15-08-2014 02:45:00 13.5 C 10.53 g/m*3 13.5 C 0 km/h
605 15-08-2014 02:50:00 13.4 C 10.46 g/m*3 13.4 C 0 km/h
606 15-08-2014 02:55:00 13.3 C 10.51 g/m*3 13.3 C 0 km/h
607 15-08-2014 03:00:00 13.2 C 10.45 g/m*3 13.2 C 0 km/h
608 15-08-2014 03:05:00 13.1 C 10.5 g/m*3 13.1 C 0 km/h
609 15-08-2014 03:10:00 13 C 10.43 g/m*3 13 C 0 km/h
610 15-08-2014 03:15:00 12.9 C 10.37 g/m*3 12.9 C 0 km/h
611 15-08-2014 03:20:00 12.9 C 10.48 g/m*3 12.9 C 0 km/h
612 15-08-2014 03:25:00 12.9 C 10.48 g/m*3 12.9 C 0 km/h
613 15-08-2014 03:30:00 12.9 C 10.48 g/m*3 12.9 C 0 km/h
614 15-08-2014 03:35:00 12.9 C 10.59 g/m*3 12.9 C 0 km/h
615 15-08-2014 03:40:00 12.9 C 10.59 g/m*3 12.9 C 0 km/h
616 15-08-2014 03:45:00 13 C 10.66 g/m*3 13 C 0 km/h
617 15-08-2014 03:50:00 13.1 C 10.73 g/m*3 13.1 C 0 km/h
618 15-08-2014 03:55:00 13.1 C 10.73 g/m*3 13.1 C 0 km/h
619 15-08-2014 04:00:00 13.1 C 10.73 g/m*3 13.1 C 0 km/h
620 15-08-2014 04:05:00 13.1 C 10.73 g/m*3 13.1 C 0 km/h
621 15-08-2014 04:10:00 13.1 C 10.73 g/m*3 13.1 C 0 km/h
622 15-08-2014 04:15:00 13.2 C 10.79 g/m*3 13.2 C 0 km/h
623 15-08-2014 04:20:00 13.2 C 10.79 g/m*3 13.2 C 0 km/h
624 15-08-2014 04:25:00 13.2 C 10.79 g/m*3 13.2 C 0 km/h
625 15-08-2014 04:30:00 13.2 C 10.79 g/m*3 13.2 C 0 km/h
Sensor: Nr:Datum:Temp:Abs-Feuchte:Windchill:Wind:
Aussen-T/F 626 15-08-2014 04:35:00 13.2 C 10.79 g/m*3 13.2 C 0 km/h
627 15-08-2014 04:40:00 13.3 C 10.86 g/m*3 13.3 C 0 km/h
628 15-08-2014 04:45:00 13.3 C 10.86 g/m*3 13.3 C 0 km/h
629 15-08-2014 04:50:00 13.3 C 10.86 g/m*3 13.3 C 0 km/h
630 15-08-2014 04:55:00 13.3 C 10.86 g/m*3 13.3 C 0 km/h
631 15-08-2014 05:00:00 13.3 C 10.86 g/m*3 13.3 C 0 km/h
632 15-08-2014 05:05:00 13.4 C 10.93 g/m*3 13.4 C 0 km/h
633 15-08-2014 05:10:00 13.4 C 10.93 g/m*3 13.4 C 0 km/h
634 15-08-2014 05:15:00 13.4 C 10.93 g/m*3 13.4 C 0 km/h
635 15-08-2014 05:20:00 13.4 C 10.93 g/m*3 13.4 C 0 km/h
636 15-08-2014 05:25:00 13.4 C 10.93 g/m*3 13.4 C 0 km/h
637 15-08-2014 05:30:00 13.4 C 10.93 g/m*3 13.4 C 0 km/h
638 15-08-2014 05:35:00 13.4 C 10.93 g/m*3 13.4 C 0 km/h
639 15-08-2014 05:40:00 13.4 C 10.93 g/m*3 13.4 C 0 km/h
640 15-08-2014 05:45:00 13.4 C 10.93 g/m*3 13.4 C 0 km/h
641 15-08-2014 05:50:00 13.4 C 10.93 g/m*3 13.4 C 0 km/h
642 15-08-2014 05:55:00 13.4 C 10.93 g/m*3 13.4 C 0 km/h
643 15-08-2014 06:00:00 13.4 C 10.93 g/m*3 13.4 C 0 km/h
644 15-08-2014 06:05:00 13.4 C 10.93 g/m*3 13.4 C 0 km/h
645 15-08-2014 06:10:00 13.4 C 10.93 g/m*3 13.4 C 0 km/h
646 15-08-2014 06:15:00 13.5 C 10.99 g/m*3 13.5 C 0 km/h
647 15-08-2014 06:20:00 13.5 C 10.99 g/m*3 13.5 C 0 km/h
648 15-08-2014 06:25:00 13.5 C 10.99 g/m*3 13.5 C 0 km/h
649 15-08-2014 06:30:00 13.6 C 11.06 g/m*3 13.6 C 0 km/h
650 15-08-2014 06:35:00 13.6 C 10.95 g/m*3 13.6 C 0 km/h
Sensor: Nr:Datum:Temp:Abs-Feuchte:Windchill:Wind:
Aussen-T/F 651 15-08-2014 06:40:00 13.6 C 11.06 g/m*3 13.6 C 0 km/h
652 15-08-2014 06:45:00 13.6 C 10.95 g/m*3 13.6 C 0 km/h
653 15-08-2014 06:50:00 13.6 C 10.95 g/m*3 13.6 C 0 km/h
654 15-08-2014 06:55:00 13.6 C 11.06 g/m*3 13.6 C 0 km/h
655 15-08-2014 07:00:00 13.7 C 11.13 g/m*3 13.7 C 0 km/h
656 15-08-2014 07:05:00 13.7 C 11.01 g/m*3 13.7 C 0 km/h
657 15-08-2014 07:10:00 13.7 C 11.01 g/m*3 13.7 C 0 km/h
658 15-08-2014 07:15:00 13.7 C 11.01 g/m*3 13.7 C 0 km/h
659 15-08-2014 07:20:00 13.7 C 11.01 g/m*3 13.7 C 0 km/h
660 15-08-2014 07:25:00 13.7 C 11.01 g/m*3 13.7 C 0 km/h
661 15-08-2014 07:30:00 13.8 C 11.08 g/m*3 13.8 C 0 km/h
662 15-08-2014 07:35:00 13.8 C 11.2 g/m*3 13.8 C 0 km/h
663 15-08-2014 07:40:00 13.8 C 11.2 g/m*3 13.8 C 0 km/h
664 15-08-2014 07:45:00 13.8 C 11.2 g/m*3 13.8 C 0 km/h
665 15-08-2014 07:50:00 13.8 C 11.2 g/m*3 13.8 C 0 km/h
666 15-08-2014 07:55:00 13.8 C 11.2 g/m*3 13.8 C 0 km/h
667 15-08-2014 08:00:00 13.9 C 11.27 g/m*3 13.9 C 0 km/h
668 15-08-2014 08:05:00 13.9 C 11.27 g/m*3 13.9 C 0 km/h
669 15-08-2014 08:10:00 14 C 11.34 g/m*3 14 C 0 km/h
670 15-08-2014 08:15:00 14 C 11.22 g/m*3 14 C 0 km/h
671 15-08-2014 08:20:00 14.1 C 11.29 g/m*3 14.1 C 0 km/h
672 15-08-2014 08:25:00 14.2 C 11.23 g/m*3 14.2 C 0 km/h
673 15-08-2014 08:30:00 14.2 C 11.23 g/m*3 14.2 C 0 km/h
674 15-08-2014 08:35:00 14.2 C 11.11 g/m*3 14.2 C 3.2 km/h
675 15-08-2014 08:40:00 14.3 C 11.06 g/m*3 14.3 C 0 km/h
Sensor: Nr:Datum:Temp:Abs-Feuchte:Windchill:Wind:
Aussen-T/F 676 15-08-2014 08:45:00 14.3 C 11.18 g/m*3 14.3 C 0 km/h
677 15-08-2014 08:50:00 14.3 C 11.06 g/m*3 14.3 C 6.4 km/h
678 15-08-2014 08:55:00 14.4 C 11.25 g/m*3 14.4 C 0 km/h
679 15-08-2014 09:00:00 14.5 C 11.32 g/m*3 14.5 C 6.4 km/h
680 15-08-2014 09:05:00 14.6 C 11.51 g/m*3 14.6 C 0 km/h
681 15-08-2014 09:10:00 14.7 C 11.46 g/m*3 14.7 C 3.2 km/h
682 15-08-2014 09:15:00 14.6 C 11.26 g/m*3 14.6 C 0 km/h
683 15-08-2014 09:20:00 14.7 C 11.58 g/m*3 14.7 C 0 km/h
684 15-08-2014 09:25:00 14.7 C 11.58 g/m*3 14.7 C 0 km/h
685 15-08-2014 09:30:00 14.7 C 11.46 g/m*3 14.7 C 4.8 km/h
686 15-08-2014 09:35:00 14.7 C 11.58 g/m*3 14.7 C 0 km/h
687 15-08-2014 09:40:00 14.7 C 11.58 g/m*3 14.7 C 0 km/h
688 15-08-2014 09:45:00 14.7 C 11.58 g/m*3 14.7 C 8.1 km/h
689 15-08-2014 09:50:00 14.8 C 11.65 g/m*3 14.8 C 8.1 km/h
690 15-08-2014 09:55:00 14.8 C 11.65 g/m*3 14.8 C 8.1 km/h
691 15-08-2014 10:00:00 14.9 C 11.73 g/m*3 14.9 C 6.4 km/h
692 15-08-2014 10:05:00 15.1 C 11.87 g/m*3 15.1 C 9.7 km/h
693 15-08-2014 10:10:00 15.2 C 11.81 g/m*3 15.2 C 9.7 km/h
694 15-08-2014 10:15:00 15.3 C 12.01 g/m*3 15.3 C 6.4 km/h
695 15-08-2014 10:20:00 15.3 C 11.75 g/m*3 15.3 C 8.1 km/h
696 15-08-2014 10:25:00 15.3 C 11.75 g/m*3 15.3 C 6.4 km/h
697 15-08-2014 10:30:00 15.4 C 11.96 g/m*3 15.4 C 8.1 km/h
698 15-08-2014 10:35:00 15.4 C 11.82 g/m*3 15.4 C 4.8 km/h
699 15-08-2014 10:40:00 15.4 C 11.69 g/m*3 15.4 C 4.8 km/h
700 15-08-2014 10:45:00 15.6 C 11.97 g/m*3 15.6 C 1.6 km/h
Sensor: Nr:Datum:Temp:Abs-Feuchte:Windchill:Wind:
Aussen-T/F 701 15-08-2014 10:50:00 15.6 C 11.7 g/m*3 15.6 C 4.8 km/h
702 15-08-2014 10:55:00 15.6 C 11.7 g/m*3 15.6 C 8.1 km/h
703 15-08-2014 11:00:00 15.6 C 11.84 g/m*3 15.6 C 3.2 km/h
704 15-08-2014 11:05:00 15.6 C 11.7 g/m*3 15.6 C 6.4 km/h
705 15-08-2014 11:10:00 15.6 C 11.7 g/m*3 15.6 C 6.4 km/h
706 15-08-2014 11:15:00 15.7 C 11.91 g/m*3 15.7 C 4.8 km/h
707 15-08-2014 11:20:00 15.7 C 11.64 g/m*3 15.7 C 4.8 km/h
708 15-08-2014 11:25:00 15.7 C 11.64 g/m*3 15.7 C 3.2 km/h
709 15-08-2014 11:30:00 15.7 C 11.64 g/m*3 15.7 C 4.8 km/h
710 15-08-2014 11:35:00 15.8 C 11.85 g/m*3 15.8 C 4.8 km/h
711 15-08-2014 11:40:00 15.8 C 11.71 g/m*3 15.8 C 0 km/h
712 15-08-2014 11:45:00 15.7 C 11.64 g/m*3 15.7 C 3.2 km/h
713 15-08-2014 11:50:00 15.7 C 11.91 g/m*3 15.7 C 1.6 km/h
714 15-08-2014 11:55:00 15.7 C 11.91 g/m*3 15.7 C 0 km/h
715 15-08-2014 12:00:00 15.7 C 12.04 g/m*3 15.7 C 1.6 km/h
716 15-08-2014 12:05:00 15.7 C 12.04 g/m*3 15.7 C 0 km/h
717 15-08-2014 12:10:00 15.7 C 12.04 g/m*3 15.7 C 0 km/h
718 15-08-2014 12:15:00 15.7 C 12.04 g/m*3 15.7 C 6.4 km/h
719 15-08-2014 12:20:00 15.9 C 12.19 g/m*3 15.9 C 4.8 km/h
720 15-08-2014 12:25:00 15.9 C 12.19 g/m*3 15.9 C 4.8 km/h
721 15-08-2014 13:15:00 16.6 C 11.58 g/m*3 16.6 C 6.4 km/h
722 15-08-2014 13:20:00 16.4 C 11.72 g/m*3 16.4 C 4.8 km/h
723 15-08-2014 13:25:00 16.4 C 12 g/m*3 16.4 C 0 km/h
724 15-08-2014 13:30:00 16.4 C 11.86 g/m*3 16.4 C 1.6 km/h
725 15-08-2014 13:35:00 16.3 C 11.79 g/m*3 16.3 C 3.2 km/h
Sensor: Nr:Datum:Temp:Abs-Feuchte:Windchill:Wind:
Aussen-T/F 726 15-08-2014 13:40:00 16.1 C 11.79 g/m*3 16.1 C 0 km/h
727 15-08-2014 13:45:00 16 C 11.99 g/m*3 16 C 0 km/h
728 15-08-2014 13:50:00 15.8 C 11.85 g/m*3 15.8 C 4.8 km/h
729 15-08-2014 13:55:00 15.7 C 11.77 g/m*3 15.7 C 1.6 km/h
730 15-08-2014 14:00:00 15.8 C 11.98 g/m*3 15.8 C 4.8 km/h
731 15-08-2014 14:05:00 15.9 C 12.05 g/m*3 15.9 C 1.6 km/h
732 15-08-2014 14:10:00 15.9 C 11.92 g/m*3 15.9 C 3.2 km/h
733 15-08-2014 14:15:00 16.1 C 12.06 g/m*3 16.1 C 4.8 km/h
734 15-08-2014 14:20:00 16.2 C 12 g/m*3 16.2 C 4.8 km/h
735 15-08-2014 14:25:00 16.3 C 11.93 g/m*3 16.3 C 4.8 km/h
736 15-08-2014 14:30:00 16.2 C 12.14 g/m*3 16.2 C 6.4 km/h
737 15-08-2014 14:35:00 15.8 C 11.85 g/m*3 15.8 C 1.6 km/h
738 15-08-2014 14:40:00 15.3 C 11.49 g/m*3 15.3 C 11.3 km/h
739 15-08-2014 14:45:00 15.1 C 11.61 g/m*3 15.1 C 1.6 km/h
740 15-08-2014 14:50:00 14.9 C 11.6 g/m*3 14.9 C 0 km/h
741 15-08-2014 14:55:00 14.7 C 11.58 g/m*3 14.7 C 0 km/h
742 15-08-2014 15:00:00 14.7 C 11.71 g/m*3 14.7 C 0 km/h
743 15-08-2014 15:05:00 14.7 C 11.83 g/m*3 14.7 C 0 km/h
744 15-08-2014 15:10:00 14.8 C 11.91 g/m*3 14.8 C 0 km/h
745 15-08-2014 15:15:00 14.9 C 11.98 g/m*3 14.9 C 0 km/h
746 15-08-2014 15:20:00 15.1 C 12.13 g/m*3 15.1 C 0 km/h
747 15-08-2014 15:25:00 15.2 C 11.94 g/m*3 15.2 C 0 km/h
748 15-08-2014 15:30:00 15.6 C 12.37 g/m*3 15.6 C 1.6 km/h
749 15-08-2014 15:35:00 15.8 C 12.38 g/m*3 15.8 C 3.2 km/h
750 15-08-2014 15:40:00 15.9 C 12.32 g/m*3 15.9 C 4.8 km/h
Sensor: Nr:Datum:Temp:Abs-Feuchte:Windchill:Wind:
Aussen-T/F 751 15-08-2014 15:45:00 15.9 C 12.05 g/m*3 15.9 C 0 km/h
752 15-08-2014 15:50:00 15.9 C 12.05 g/m*3 15.9 C 3.2 km/h
753 15-08-2014 15:55:00 15.9 C 11.92 g/m*3 15.9 C 1.6 km/h
754 15-08-2014 16:00:00 16.2 C 12 g/m*3 16.2 C 3.2 km/h
755 15-08-2014 16:05:00 16.3 C 12.07 g/m*3 16.3 C 3.2 km/h
756 15-08-2014 16:10:00 16.4 C 12.14 g/m*3 16.4 C 1.6 km/h
757 15-08-2014 16:15:00 16.4 C 12.42 g/m*3 16.4 C 0 km/h
758 15-08-2014 16:20:00 16.3 C 12.49 g/m*3 16.3 C 0 km/h
759 15-08-2014 16:25:00 16 C 12.26 g/m*3 16 C 0 km/h
760 15-08-2014 16:30:00 15.7 C 12.18 g/m*3 15.7 C 0 km/h
761 15-08-2014 16:35:00 15.4 C 12.09 g/m*3 15.4 C 0 km/h
762 15-08-2014 16:40:00 15.1 C 12 g/m*3 15.1 C 3.2 km/h
763 15-08-2014 16:45:00 14.8 C 11.65 g/m*3 14.8 C 1.6 km/h
764 15-08-2014 16:50:00 14.6 C 11.51 g/m*3 14.6 C 1.6 km/h
765 15-08-2014 16:55:00 14.3 C 11.3 g/m*3 14.3 C 0 km/h
766 15-08-2014 17:00:00 14.2 C 11.36 g/m*3 14.2 C 0 km/h
767 15-08-2014 17:05:00 14.2 C 11.36 g/m*3 14.2 C 1.6 km/h
768 15-08-2014 17:10:00 14.1 C 11.41 g/m*3 14.1 C 0 km/h
769 15-08-2014 17:15:00 14.1 C 11.41 g/m*3 14.1 C 0 km/h
770 15-08-2014 17:20:00 14.2 C 11.6 g/m*3 14.2 C 0 km/h
771 15-08-2014 17:25:00 14.3 C 11.67 g/m*3 14.3 C 0 km/h
772 15-08-2014 17:30:00 14.2 C 11.48 g/m*3 14.2 C 0 km/h
773 15-08-2014 17:35:00 14.3 C 11.55 g/m*3 14.3 C 1.6 km/h
774 15-08-2014 17:40:00 14.5 C 11.69 g/m*3 14.5 C 1.6 km/h
775 15-08-2014 17:45:00 14.9 C 12.11 g/m*3 14.9 C 1.6 km/h
Sensor: Nr:Datum:Temp:Abs-Feuchte:Windchill:Wind:
Aussen-T/F 776 15-08-2014 17:50:00 15.6 C 12.5 g/m*3 15.6 C 3.2 km/h
777 15-08-2014 17:55:00 15.9 C 12.19 g/m*3 15.9 C 3.2 km/h
778 15-08-2014 18:00:00 16.4 C 12.7 g/m*3 16.4 C 0 km/h
779 15-08-2014 18:05:00 16.8 C 12.58 g/m*3 16.8 C 1.6 km/h
780 15-08-2014 18:10:00 17.2 C 12.74 g/m*3 17.2 C 3.2 km/h
781 15-08-2014 18:15:00 17.5 C 13.12 g/m*3 17.5 C 0 km/h
782 15-08-2014 18:20:00 17.6 C 12.9 g/m*3 17.6 C 0 km/h
783 15-08-2014 18:25:00 17.6 C 13.05 g/m*3 17.6 C 3.2 km/h
784 15-08-2014 18:30:00 17.4 C 12.89 g/m*3 17.4 C 0 km/h
785 15-08-2014 18:35:00 17.3 C 13.11 g/m*3 17.3 C 0 km/h
786 15-08-2014 18:40:00 16.9 C 12.94 g/m*3 16.9 C 0 km/h
787 15-08-2014 18:45:00 16.7 C 12.93 g/m*3 16.7 C 0 km/h
788 15-08-2014 18:50:00 16.3 C 12.76 g/m*3 16.3 C 0 km/h
789 15-08-2014 18:55:00 16.2 C 12.69 g/m*3 16.2 C 0 km/h
790 15-08-2014 19:00:00 15.9 C 12.46 g/m*3 15.9 C 0 km/h
791 15-08-2014 19:05:00 15.6 C 12.23 g/m*3 15.6 C 0 km/h
792 15-08-2014 19:10:00 15.2 C 12.07 g/m*3 15.2 C 0 km/h
793 15-08-2014 19:15:00 15.1 C 12.13 g/m*3 15.1 C 0 km/h
794 15-08-2014 19:20:00 15 C 12.05 g/m*3 15 C 0 km/h
795 15-08-2014 19:25:00 14.8 C 11.91 g/m*3 14.8 C 0 km/h
796 15-08-2014 19:30:00 14.7 C 11.83 g/m*3 14.7 C 0 km/h
797 15-08-2014 19:35:00 14.6 C 11.89 g/m*3 14.6 C 0 km/h
798 15-08-2014 19:40:00 14.5 C 11.82 g/m*3 14.5 C 0 km/h
799 15-08-2014 19:45:00 14.4 C 11.74 g/m*3 14.4 C 0 km/h
800 15-08-2014 19:50:00 14.4 C 11.74 g/m*3 14.4 C 0 km/h
Sensor: Nr:Datum:Temp:Abs-Feuchte:Windchill:Wind:
Aussen-T/F 801 15-08-2014 19:55:00 14.3 C 11.67 g/m*3 14.3 C 0 km/h
802 15-08-2014 20:00:00 14.3 C 11.79 g/m*3 14.3 C 0 km/h
803 15-08-2014 20:05:00 14.4 C 11.87 g/m*3 14.4 C 0 km/h
804 15-08-2014 20:10:00 14.4 C 11.87 g/m*3 14.4 C 0 km/h
805 15-08-2014 20:15:00 14.4 C 11.87 g/m*3 14.4 C 0 km/h
806 15-08-2014 20:20:00 14.4 C 11.87 g/m*3 14.4 C 0 km/h
807 15-08-2014 20:25:00 14.5 C 11.94 g/m*3 14.5 C 0 km/h
808 15-08-2014 20:30:00 14.4 C 11.87 g/m*3 14.4 C 0 km/h
809 15-08-2014 20:35:00 14.5 C 12.06 g/m*3 14.5 C 0 km/h
810 15-08-2014 20:40:00 14.5 C 12.06 g/m*3 14.5 C 0 km/h
811 15-08-2014 20:45:00 14.5 C 12.06 g/m*3 14.5 C 0 km/h
812 15-08-2014 20:50:00 14.4 C 11.87 g/m*3 14.4 C 0 km/h
813 15-08-2014 20:55:00 14.3 C 11.79 g/m*3 14.3 C 1.6 km/h
814 15-08-2014 21:00:00 14.3 C 11.79 g/m*3 14.3 C 0 km/h
815 15-08-2014 21:05:00 14.3 C 11.79 g/m*3 14.3 C 1.6 km/h
816 15-08-2014 21:10:00 14.3 C 11.92 g/m*3 14.3 C 1.6 km/h
817 15-08-2014 21:15:00 14.3 C 11.92 g/m*3 14.3 C 0 km/h
818 15-08-2014 21:20:00 14.2 C 11.84 g/m*3 14.2 C 0 km/h
819 15-08-2014 21:25:00 14.2 C 11.84 g/m*3 14.2 C 0 km/h
820 15-08-2014 21:30:00 14.2 C 11.84 g/m*3 14.2 C 0 km/h
821 15-08-2014 21:35:00 14.2 C 11.72 g/m*3 14.2 C 0 km/h
822 15-08-2014 21:40:00 14.1 C 11.65 g/m*3 14.1 C 0 km/h
823 15-08-2014 21:45:00 14 C 11.58 g/m*3 14 C 0 km/h
824 15-08-2014 21:50:00 13.9 C 11.51 g/m*3 13.9 C 0 km/h
825 15-08-2014 21:55:00 13.9 C 11.51 g/m*3 13.9 C 0 km/h
Sensor: Nr:Datum:Temp:Abs-Feuchte:Windchill:Wind:
Aussen-T/F 826 15-08-2014 22:00:00 13.9 C 11.51 g/m*3 13.9 C 0 km/h
827 15-08-2014 22:05:00 13.9 C 11.63 g/m*3 13.9 C 0 km/h
828 15-08-2014 22:10:00 13.8 C 11.56 g/m*3 13.8 C 0 km/h
829 15-08-2014 22:15:00 13.8 C 11.56 g/m*3 13.8 C 0 km/h
830 15-08-2014 22:20:00 13.8 C 11.56 g/m*3 13.8 C 0 km/h
831 15-08-2014 22:25:00 13.8 C 11.56 g/m*3 13.8 C 0 km/h
832 15-08-2014 22:30:00 13.8 C 11.56 g/m*3 13.8 C 0 km/h
833 15-08-2014 22:35:00 13.7 C 11.49 g/m*3 13.7 C 0 km/h
834 15-08-2014 22:40:00 13.6 C 11.42 g/m*3 13.6 C 0 km/h
835 15-08-2014 22:45:00 13.6 C 11.42 g/m*3 13.6 C 0 km/h
836 15-08-2014 22:50:00 13.6 C 11.42 g/m*3 13.6 C 0 km/h
837 15-08-2014 22:55:00 13.6 C 11.42 g/m*3 13.6 C 0 km/h
838 15-08-2014 23:00:00 13.6 C 11.42 g/m*3 13.6 C 0 km/h
839 15-08-2014 23:05:00 13.5 C 11.35 g/m*3 13.5 C 0 km/h
840 15-08-2014 23:10:00 13.4 C 11.28 g/m*3 13.4 C 0 km/h
841 15-08-2014 23:15:00 13.4 C 11.28 g/m*3 13.4 C 0 km/h
842 15-08-2014 23:20:00 13.3 C 11.21 g/m*3 13.3 C 0 km/h
843 15-08-2014 23:25:00 13.2 C 11.14 g/m*3 13.2 C 0 km/h
844 15-08-2014 23:30:00 13.2 C 11.14 g/m*3 13.2 C 0 km/h
845 15-08-2014 23:35:00 13.1 C 11.07 g/m*3 13.1 C 0 km/h
846 15-08-2014 23:40:00 13.1 C 11.07 g/m*3 13.1 C 0 km/h
847 15-08-2014 23:45:00 13.1 C 11.07 g/m*3 13.1 C 0 km/h
848 15-08-2014 23:50:00 13.2 C 11.14 g/m*3 13.2 C 0 km/h
849 15-08-2014 23:55:00 13.2 C 11.14 g/m*3 13.2 C 0 km/h
850 16-08-2014 00:00:00 13.1 C 11.07 g/m*3 13.1 C 0 km/h
Sensor: Nr:Datum:Temp:Abs-Feuchte:Windchill:Wind:
Aussen-T/F 851 16-08-2014 00:05:00 13.1 C 11.07 g/m*3 13.1 C 0 km/h
852 16-08-2014 00:10:00 13 C 11 g/m*3 13 C 0 km/h
853 16-08-2014 00:15:00 12.9 C 10.93 g/m*3 12.9 C 0 km/h
854 16-08-2014 00:20:00 12.8 C 10.87 g/m*3 12.8 C 0 km/h
855 16-08-2014 00:25:00 12.8 C 10.87 g/m*3 12.8 C 0 km/h
856 16-08-2014 00:30:00 12.8 C 10.87 g/m*3 12.8 C 0 km/h
857 16-08-2014 00:35:00 12.7 C 10.8 g/m*3 12.7 C 0 km/h
858 16-08-2014 00:40:00 12.7 C 10.8 g/m*3 12.7 C 0 km/h
859 16-08-2014 00:45:00 12.7 C 10.8 g/m*3 12.7 C 0 km/h
860 16-08-2014 00:50:00 12.7 C 10.8 g/m*3 12.7 C 0 km/h
861 16-08-2014 00:55:00 12.7 C 10.8 g/m*3 12.7 C 0 km/h
862 16-08-2014 01:00:00 12.6 C 10.73 g/m*3 12.6 C 0 km/h
863 16-08-2014 01:05:00 12.6 C 10.73 g/m*3 12.6 C 0 km/h
864 16-08-2014 01:10:00 12.6 C 10.73 g/m*3 12.6 C 0 km/h
865 16-08-2014 01:15:00 12.6 C 10.73 g/m*3 12.6 C 0 km/h
866 16-08-2014 01:20:00 12.6 C 10.73 g/m*3 12.6 C 0 km/h
867 16-08-2014 01:25:00 12.7 C 10.8 g/m*3 12.7 C 0 km/h
868 16-08-2014 01:30:00 12.7 C 10.8 g/m*3 12.7 C 0 km/h
869 16-08-2014 01:35:00 12.8 C 10.87 g/m*3 12.8 C 0 km/h
870 16-08-2014 01:40:00 12.8 C 10.87 g/m*3 12.8 C 0 km/h
871 16-08-2014 01:45:00 12.9 C 11.05 g/m*3 12.9 C 0 km/h
872 16-08-2014 01:50:00 12.9 C 11.05 g/m*3 12.9 C 0 km/h
873 16-08-2014 01:55:00 12.9 C 11.05 g/m*3 12.9 C 0 km/h
874 16-08-2014 02:00:00 12.9 C 11.05 g/m*3 12.9 C 0 km/h
875 16-08-2014 02:05:00 12.9 C 11.05 g/m*3 12.9 C 0 km/h
Sensor: Nr:Datum:Temp:Abs-Feuchte:Windchill:Wind:
Aussen-T/F 876 16-08-2014 02:10:00 12.9 C 11.05 g/m*3 12.9 C 0 km/h
877 16-08-2014 02:15:00 12.9 C 11.05 g/m*3 12.9 C 0 km/h
878 16-08-2014 02:20:00 12.9 C 11.05 g/m*3 12.9 C 0 km/h
879 16-08-2014 02:25:00 13 C 11.11 g/m*3 13 C 0 km/h
880 16-08-2014 02:30:00 13 C 11.11 g/m*3 13 C 0 km/h
881 16-08-2014 02:35:00 13 C 11.11 g/m*3 13 C 0 km/h
882 16-08-2014 02:40:00 13 C 11.11 g/m*3 13 C 0 km/h
883 16-08-2014 02:45:00 13 C 11.11 g/m*3 13 C 0 km/h
884 16-08-2014 02:50:00 13 C 11.11 g/m*3 13 C 0 km/h
885 16-08-2014 02:55:00 13 C 11.11 g/m*3 13 C 0 km/h
886 16-08-2014 03:00:00 12.9 C 11.05 g/m*3 12.9 C 0 km/h
887 16-08-2014 03:05:00 12.9 C 11.05 g/m*3 12.9 C 0 km/h
888 16-08-2014 03:10:00 12.9 C 11.05 g/m*3 12.9 C 0 km/h
889 16-08-2014 03:15:00 12.9 C 11.05 g/m*3 12.9 C 0 km/h
890 16-08-2014 03:20:00 12.9 C 11.05 g/m*3 12.9 C 0 km/h
891 16-08-2014 03:25:00 12.9 C 11.05 g/m*3 12.9 C 0 km/h
892 16-08-2014 03:30:00 12.9 C 11.05 g/m*3 12.9 C 0 km/h
893 16-08-2014 03:35:00 12.9 C 11.05 g/m*3 12.9 C 0 km/h
894 16-08-2014 03:40:00 12.9 C 11.05 g/m*3 12.9 C 0 km/h
895 16-08-2014 03:45:00 12.9 C 11.05 g/m*3 12.9 C 0 km/h
896 16-08-2014 03:50:00 12.9 C 11.05 g/m*3 12.9 C 0 km/h
897 16-08-2014 03:55:00 12.9 C 11.05 g/m*3 12.9 C 0 km/h
898 16-08-2014 04:00:00 12.9 C 11.05 g/m*3 12.9 C 0 km/h
899 16-08-2014 04:05:00 12.9 C 11.05 g/m*3 12.9 C 0 km/h
900 16-08-2014 04:10:00 12.9 C 11.05 g/m*3 12.9 C 0 km/h
Sensor: Nr:Datum:Temp:Abs-Feuchte:Windchill:Wind:
Aussen-T/F 901 16-08-2014 04:15:00 12.9 C 11.05 g/m*3 12.9 C 0 km/h
902 16-08-2014 04:20:00 12.9 C 11.05 g/m*3 12.9 C 0 km/h
903 16-08-2014 04:25:00 12.9 C 11.05 g/m*3 12.9 C 0 km/h
904 16-08-2014 04:30:00 12.9 C 11.05 g/m*3 12.9 C 0 km/h
905 16-08-2014 04:35:00 13 C 11.11 g/m*3 13 C 0 km/h
906 16-08-2014 04:40:00 13 C 11.11 g/m*3 13 C 0 km/h
907 16-08-2014 04:45:00 13 C 11.11 g/m*3 13 C 0 km/h
908 16-08-2014 04:50:00 12.9 C 11.05 g/m*3 12.9 C 0 km/h
909 16-08-2014 04:55:00 12.8 C 10.98 g/m*3 12.8 C 0 km/h
910 16-08-2014 05:00:00 12.8 C 10.87 g/m*3 12.8 C 0 km/h
911 16-08-2014 05:05:00 12.7 C 10.91 g/m*3 12.7 C 0 km/h
912 16-08-2014 05:10:00 12.7 C 10.91 g/m*3 12.7 C 0 km/h
913 16-08-2014 05:15:00 12.6 C 10.84 g/m*3 12.6 C 0 km/h
914 16-08-2014 05:20:00 12.6 C 10.73 g/m*3 12.6 C 0 km/h
915 16-08-2014 05:25:00 12.5 C 10.66 g/m*3 12.5 C 0 km/h
916 16-08-2014 05:30:00 12.4 C 10.6 g/m*3 12.4 C 0 km/h
917 16-08-2014 05:35:00 12.4 C 10.71 g/m*3 12.4 C 0 km/h
918 16-08-2014 05:40:00 12.4 C 10.71 g/m*3 12.4 C 0 km/h
919 16-08-2014 05:45:00 12.4 C 10.71 g/m*3 12.4 C 0 km/h
920 16-08-2014 05:50:00 12.5 C 10.77 g/m*3 12.5 C 0 km/h
921 16-08-2014 05:55:00 12.5 C 10.77 g/m*3 12.5 C 0 km/h
922 16-08-2014 06:00:00 12.5 C 10.77 g/m*3 12.5 C 0 km/h
923 16-08-2014 06:05:00 12.5 C 10.77 g/m*3 12.5 C 0 km/h
924 16-08-2014 06:10:00 12.5 C 10.77 g/m*3 12.5 C 0 km/h
925 16-08-2014 06:15:00 12.5 C 10.77 g/m*3 12.5 C 0 km/h
Sensor: Nr:Datum:Temp:Abs-Feuchte:Windchill:Wind:
Aussen-T/F 926 16-08-2014 06:20:00 12.6 C 10.84 g/m*3 12.6 C 0 km/h
927 16-08-2014 06:25:00 12.6 C 10.84 g/m*3 12.6 C 0 km/h
928 16-08-2014 06:30:00 12.6 C 10.84 g/m*3 12.6 C 0 km/h
929 16-08-2014 06:35:00 12.6 C 10.84 g/m*3 12.6 C 0 km/h
930 16-08-2014 06:40:00 12.6 C 10.84 g/m*3 12.6 C 0 km/h
931 16-08-2014 06:45:00 12.5 C 10.77 g/m*3 12.5 C 0 km/h
932 16-08-2014 06:50:00 12.4 C 10.6 g/m*3 12.4 C 0 km/h
933 16-08-2014 06:55:00 12.3 C 10.64 g/m*3 12.3 C 0 km/h
934 16-08-2014 07:00:00 12.3 C 10.64 g/m*3 12.3 C 0 km/h
935 16-08-2014 07:05:00 12.3 C 10.64 g/m*3 12.3 C 0 km/h
936 16-08-2014 07:10:00 12.3 C 10.64 g/m*3 12.3 C 0 km/h
937 16-08-2014 07:15:00 12.4 C 10.71 g/m*3 12.4 C 0 km/h
938 16-08-2014 07:20:00 12.4 C 10.6 g/m*3 12.4 C 0 km/h
939 16-08-2014 07:25:00 12.3 C 10.64 g/m*3 12.3 C 0 km/h
940 16-08-2014 07:30:00 12.3 C 10.53 g/m*3 12.3 C 0 km/h
941 16-08-2014 07:35:00 12.3 C 10.64 g/m*3 12.3 C 0 km/h
942 16-08-2014 07:40:00 12.4 C 10.6 g/m*3 12.4 C 0 km/h
943 16-08-2014 07:45:00 12.6 C 10.73 g/m*3 12.6 C 0 km/h
944 16-08-2014 07:50:00 12.7 C 10.91 g/m*3 12.7 C 0 km/h
945 16-08-2014 07:55:00 12.7 C 10.91 g/m*3 12.7 C 0 km/h
946 16-08-2014 08:00:00 12.8 C 10.87 g/m*3 12.8 C 0 km/h
947 16-08-2014 08:05:00 12.9 C 10.93 g/m*3 12.9 C 0 km/h
948 16-08-2014 08:10:00 12.9 C 10.93 g/m*3 12.9 C 0 km/h
949 16-08-2014 08:15:00 13.1 C 11.07 g/m*3 13.1 C 0 km/h
950 16-08-2014 08:20:00 13.2 C 11.14 g/m*3 13.2 C 0 km/h
Sensor: Nr:Datum:Temp:Abs-Feuchte:Windchill:Wind:
Aussen-T/F 951 16-08-2014 08:25:00 13.2 C 11.14 g/m*3 13.2 C 0 km/h
952 16-08-2014 08:30:00 13.2 C 11.02 g/m*3 13.2 C 0 km/h
953 16-08-2014 08:35:00 13.3 C 11.09 g/m*3 13.3 C 0 km/h
954 16-08-2014 08:40:00 13.4 C 11.04 g/m*3 13.4 C 0 km/h
955 16-08-2014 08:45:00 13.4 C 11.04 g/m*3 13.4 C 0 km/h
956 16-08-2014 08:50:00 13.5 C 11.11 g/m*3 13.5 C 0 km/h
957 16-08-2014 08:55:00 13.6 C 11.06 g/m*3 13.6 C 0 km/h
958 16-08-2014 09:00:00 13.7 C 11.13 g/m*3 13.7 C 0 km/h
959 16-08-2014 09:05:00 13.7 C 11.01 g/m*3 13.7 C 0 km/h
960 16-08-2014 09:10:00 13.7 C 11.01 g/m*3 13.7 C 0 km/h
961 16-08-2014 09:15:00 13.7 C 11.01 g/m*3 13.7 C 0 km/h
962 16-08-2014 09:20:00 13.7 C 11.01 g/m*3 13.7 C 0 km/h
963 16-08-2014 09:25:00 13.8 C 11.08 g/m*3 13.8 C 4.8 km/h
964 16-08-2014 09:30:00 13.9 C 11.15 g/m*3 13.9 C 4.8 km/h
965 16-08-2014 09:35:00 14.1 C 11.29 g/m*3 14.1 C 9.7 km/h
966 16-08-2014 09:40:00 14.2 C 11.23 g/m*3 14.2 C 9.7 km/h
967 16-08-2014 09:45:00 14.3 C 11.3 g/m*3 14.3 C 1.6 km/h
968 16-08-2014 09:50:00 14.3 C 11.3 g/m*3 14.3 C 6.4 km/h
969 16-08-2014 09:55:00 14.6 C 11.51 g/m*3 14.6 C 9.7 km/h
970 16-08-2014 10:00:00 14.7 C 11.58 g/m*3 14.7 C 4.8 km/h
971 16-08-2014 10:05:00 14.8 C 11.4 g/m*3 14.8 C 4.8 km/h
972 16-08-2014 10:10:00 14.8 C 11.53 g/m*3 14.8 C 0 km/h
973 16-08-2014 10:15:00 14.9 C 11.47 g/m*3 14.9 C 8.1 km/h
974 16-08-2014 10:20:00 15.2 C 11.81 g/m*3 15.2 C 8.1 km/h
975 16-08-2014 10:25:00 15.3 C 11.88 g/m*3 15.3 C 6.4 km/h
Sensor: Nr:Datum:Temp:Abs-Feuchte:Windchill:Wind:
Aussen-T/F 976 16-08-2014 10:30:00 15.3 C 11.88 g/m*3 15.3 C 11.3 km/h
977 16-08-2014 10:50:00 15.1 C 11.74 g/m*3 15.1 C 0 km/h
978 16-08-2014 10:55:00 14.9 C 11.85 g/m*3 14.9 C 0 km/h
979 16-08-2014 11:00:00 14.8 C 11.91 g/m*3 14.8 C 0 km/h
980 16-08-2014 11:05:00 14.8 C 11.91 g/m*3 14.8 C 0 km/h
981 16-08-2014 11:10:00 15 C 12.18 g/m*3 15 C 0 km/h
982 16-08-2014 11:15:00 15.1 C 12.26 g/m*3 15.1 C 0 km/h
983 16-08-2014 11:20:00 15.1 C 12.26 g/m*3 15.1 C 0 km/h
984 16-08-2014 11:25:00 15.1 C 12.26 g/m*3 15.1 C 0 km/h
985 16-08-2014 11:30:00 14.8 C 12.03 g/m*3 14.8 C 0 km/h
986 16-08-2014 11:35:00 14.8 C 12.03 g/m*3 14.8 C 0 km/h
987 16-08-2014 11:40:00 15.1 C 12.39 g/m*3 15.1 C 6.4 km/h
988 16-08-2014 11:45:00 15.2 C 12.33 g/m*3 15.2 C 1.6 km/h
989 16-08-2014 11:50:00 15.6 C 12.77 g/m*3 15.6 C 0 km/h
990 16-08-2014 11:55:00 15.7 C 12.71 g/m*3 15.7 C 0 km/h
991 16-08-2014 12:00:00 15.7 C 12.58 g/m*3 15.7 C 0 km/h
992 16-08-2014 12:05:00 15.7 C 12.58 g/m*3 15.7 C 0 km/h
993 16-08-2014 12:10:00 15.6 C 12.5 g/m*3 15.6 C 1.6 km/h
994 16-08-2014 12:15:00 15.7 C 12.04 g/m*3 15.7 C 4.8 km/h
995 16-08-2014 12:20:00 16.2 C 12.55 g/m*3 16.2 C 1.6 km/h
996 16-08-2014 12:25:00 16.5 C 12.92 g/m*3 16.5 C 0 km/h
997 16-08-2014 12:30:00 16.5 C 12.5 g/m*3 16.5 C 0 km/h
998 16-08-2014 12:35:00 16.5 C 12.64 g/m*3 16.5 C 6.4 km/h
999 16-08-2014 12:40:00 16.6 C 12.29 g/m*3 16.6 C 8.1 km/h
1000 16-08-2014 12:45:00 16.8 C 12.58 g/m*3 16.8 C 6.4 km/h
Sensor: Nr:Datum:Temp:Abs-Feuchte:Windchill:Wind:
Aussen-T/F 1001 16-08-2014 12:50:00 16.9 C 11.94 g/m*3 16.9 C 9.7 km/h
1002 16-08-2014 12:55:00 16.8 C 12.01 g/m*3 16.8 C 8.1 km/h
1003 16-08-2014 13:00:00 16.8 C 12.01 g/m*3 16.8 C 6.4 km/h
1004 16-08-2014 13:05:00 16.6 C 12.57 g/m*3 16.6 C 0 km/h
1005 16-08-2014 13:10:00 16.4 C 12.84 g/m*3 16.4 C 0 km/h
1006 16-08-2014 13:15:00 16.6 C 13.14 g/m*3 16.6 C 0 km/h
1007 16-08-2014 13:20:00 16.7 C 13.22 g/m*3 16.7 C 0 km/h
1008 16-08-2014 13:25:00 16.7 C 12.65 g/m*3 16.7 C 6.4 km/h
1009 16-08-2014 13:30:00 17 C 13.02 g/m*3 17 C 1.6 km/h
1010 16-08-2014 13:35:00 17.2 C 12.45 g/m*3 17.2 C 0 km/h
1011 16-08-2014 13:40:00 17.4 C 13.34 g/m*3 17.4 C 1.6 km/h
1012 16-08-2014 13:45:00 17.6 C 11.85 g/m*3 17.6 C 11.3 km/h
1013 16-08-2014 13:50:00 17.9 C 11.45 g/m*3 17.9 C 14.5 km/h
1014 16-08-2014 13:55:00 18.2 C 12.75 g/m*3 18.2 C 14.5 km/h
1015 16-08-2014 14:00:00 18.3 C 13.45 g/m*3 18.3 C 4.8 km/h
1016 16-08-2014 14:05:00 18.5 C 12.02 g/m*3 18.5 C 4.8 km/h
1017 16-08-2014 14:10:00 18.6 C 11.62 g/m*3 18.6 C 11.3 km/h
1018 16-08-2014 14:15:00 18.6 C 11.62 g/m*3 18.6 C 11.3 km/h
1019 16-08-2014 14:20:00 18.4 C 11.01 g/m*3 18.4 C 8.1 km/h
1020 16-08-2014 14:25:00 18.4 C 11.01 g/m*3 18.4 C 9.7 km/h
1021 16-08-2014 14:30:00 18.3 C 10.94 g/m*3 18.3 C 9.7 km/h
1022 16-08-2014 14:35:00 18.3 C 11.41 g/m*3 18.3 C 9.7 km/h
1023 16-08-2014 14:40:00 18.2 C 11.35 g/m*3 18.2 C 6.4 km/h
1024 16-08-2014 14:45:00 18.2 C 12.28 g/m*3 18.2 C 3.2 km/h
1025 16-08-2014 14:50:00 18.3 C 11.1 g/m*3 18.3 C 9.7 km/h
Sensor: Nr:Datum:Temp:Abs-Feuchte:Windchill:Wind:
Aussen-T/F 1026 16-08-2014 14:55:00 18.7 C 11.37 g/m*3 18.7 C 8.1 km/h
1027 16-08-2014 15:00:00 19.1 C 11.8 g/m*3 19.1 C 9.7 km/h
1028 16-08-2014 15:05:00 19.5 C 11.58 g/m*3 19.5 C 11.3 km/h
1029 16-08-2014 15:10:00 19.7 C 11.21 g/m*3 19.7 C 17.7 km/h
1030 16-08-2014 15:15:00 19.9 C 11.34 g/m*3 19.9 C 12.9 km/h
1031 16-08-2014 15:20:00 20.3 C 11.43 g/m*3 20.3 C 17.7 km/h
1032 16-08-2014 15:25:00 20.6 C 11.63 g/m*3 20.6 C 14.5 km/h
1033 16-08-2014 15:30:00 20.4 C 10.97 g/m*3 20.4 C 9.7 km/h
1034 16-08-2014 15:35:00 20.7 C 11.16 g/m*3 20.7 C 6.4 km/h
1035 16-08-2014 15:40:00 20.8 C 11.59 g/m*3 20.8 C 8.1 km/h
1036 16-08-2014 15:45:00 21.2 C 10.93 g/m*3 21.2 C 8.1 km/h
1037 16-08-2014 15:50:00 21.3 C 11 g/m*3 21.3 C 8.1 km/h
1038 16-08-2014 15:55:00 21.4 C 11.06 g/m*3 21.4 C 9.7 km/h
1039 16-08-2014 16:00:00 21.2 C 12.79 g/m*3 21.2 C 4.8 km/h
1040 16-08-2014 16:05:00 20.7 C 11.7 g/m*3 20.7 C 4.8 km/h
1041 16-08-2014 16:10:00 20.5 C 12.99 g/m*3 20.5 C 4.8 km/h
1042 16-08-2014 16:15:00 20.1 C 10.95 g/m*3 20.1 C 8.1 km/h
1043 16-08-2014 16:20:00 19.8 C 12.98 g/m*3 19.8 C 1.6 km/h
1044 16-08-2014 16:25:00 19.5 C 12.25 g/m*3 19.5 C 4.8 km/h
1045 16-08-2014 16:30:00 19.8 C 11.1 g/m*3 19.8 C 6.4 km/h
1046 16-08-2014 16:35:00 20.4 C 11.14 g/m*3 20.4 C 14.5 km/h
1047 16-08-2014 16:40:00 20.9 C 11.11 g/m*3 20.9 C 6.4 km/h
1048 16-08-2014 16:45:00 20.9 C 10.75 g/m*3 20.9 C 9.7 km/h
1049 16-08-2014 16:50:00 20.8 C 10.68 g/m*3 20.8 C 6.4 km/h
1050 16-08-2014 16:55:00 20.4 C 10.79 g/m*3 20.4 C 8.1 km/h
Sensor: Nr:Datum:Temp:Abs-Feuchte:Windchill:Wind:
Aussen-T/F 1051 16-08-2014 17:00:00 20.3 C 10.9 g/m*3 20.3 C 6.4 km/h
1052 16-08-2014 17:05:00 20.4 C 11.5 g/m*3 20.4 C 8.1 km/h
1053 16-08-2014 17:10:00 20.2 C 12.41 g/m*3 20.2 C 4.8 km/h
1054 16-08-2014 17:15:00 19.9 C 12.89 g/m*3 19.9 C 4.8 km/h
1055 16-08-2014 17:20:00 19.2 C 11.71 g/m*3 19.2 C 3.2 km/h
1056 16-08-2014 17:25:00 19 C 12.87 g/m*3 19 C 0 km/h
1057 16-08-2014 17:30:00 18.6 C 11.78 g/m*3 18.6 C 11.3 km/h
1058 16-08-2014 17:35:00 18.8 C 11.11 g/m*3 18.8 C 11.3 km/h
1059 16-08-2014 17:40:00 19.2 C 10.88 g/m*3 19.2 C 8.1 km/h
1060 16-08-2014 17:45:00 19.6 C 11.14 g/m*3 19.6 C 8.1 km/h
1061 16-08-2014 17:50:00 19.8 C 11.27 g/m*3 19.8 C 12.9 km/h
1062 16-08-2014 17:55:00 19.8 C 11.27 g/m*3 19.8 C 6.4 km/h
1063 16-08-2014 18:00:00 19.6 C 10.47 g/m*3 19.6 C 8.1 km/h
1064 16-08-2014 18:05:00 19.2 C 12.37 g/m*3 19.2 C 0 km/h
1065 16-08-2014 18:10:00 18.4 C 12.43 g/m*3 18.4 C 1.6 km/h
1066 16-08-2014 18:15:00 17.7 C 12.22 g/m*3 17.7 C 0 km/h
1067 16-08-2014 18:20:00 17.2 C 11.86 g/m*3 17.2 C 1.6 km/h
1068 16-08-2014 18:25:00 16.9 C 12.08 g/m*3 16.9 C 1.6 km/h
1069 16-08-2014 18:30:00 16.8 C 12.01 g/m*3 16.8 C 1.6 km/h
1070 16-08-2014 18:35:00 16.7 C 11.23 g/m*3 16.7 C 4.8 km/h
1071 16-08-2014 18:40:00 16.9 C 11.94 g/m*3 16.9 C 1.6 km/h
1072 16-08-2014 18:45:00 16.9 C 11.94 g/m*3 16.9 C 1.6 km/h
1073 16-08-2014 18:50:00 16.7 C 11.37 g/m*3 16.7 C 11.3 km/h
1074 16-08-2014 18:55:00 16.9 C 11.51 g/m*3 16.9 C 17.7 km/h
1075 16-08-2014 19:00:00 16.9 C 11.65 g/m*3 16.9 C 11.3 km/h
Sensor: Nr:Datum:Temp:Abs-Feuchte:Windchill:Wind:
Aussen-T/F 1076 16-08-2014 19:05:00 16.7 C 11.51 g/m*3 16.7 C 6.4 km/h
1077 16-08-2014 19:10:00 16.6 C 11.58 g/m*3 16.6 C 6.4 km/h
1078 16-08-2014 19:15:00 16.3 C 11.65 g/m*3 16.3 C 8.1 km/h
1079 16-08-2014 19:20:00 16 C 12.13 g/m*3 16 C 1.6 km/h
1080 16-08-2014 19:25:00 15.7 C 12.04 g/m*3 15.7 C 3.2 km/h
1081 16-08-2014 19:30:00 15.4 C 11.96 g/m*3 15.4 C 3.2 km/h
1082 16-08-2014 19:35:00 15.3 C 12.01 g/m*3 15.3 C 1.6 km/h
1083 16-08-2014 19:40:00 15.2 C 12.07 g/m*3 15.2 C 1.6 km/h
1084 16-08-2014 19:45:00 15.1 C 12 g/m*3 15.1 C 3.2 km/h
1085 16-08-2014 19:50:00 15 C 11.93 g/m*3 15 C 1.6 km/h
1086 16-08-2014 19:55:00 14.9 C 11.85 g/m*3 14.9 C 1.6 km/h
1087 16-08-2014 20:00:00 14.8 C 11.91 g/m*3 14.8 C 1.6 km/h
1088 16-08-2014 20:05:00 14.8 C 11.78 g/m*3 14.8 C 1.6 km/h
1089 16-08-2014 20:10:00 14.7 C 11.71 g/m*3 14.7 C 3.2 km/h
1090 16-08-2014 20:15:00 14.7 C 11.71 g/m*3 14.7 C 1.6 km/h
1091 16-08-2014 20:20:00 14.6 C 11.64 g/m*3 14.6 C 1.6 km/h
1092 16-08-2014 20:25:00 14.6 C 11.76 g/m*3 14.6 C 1.6 km/h
1093 16-08-2014 20:30:00 14.6 C 11.76 g/m*3 14.6 C 1.6 km/h
1094 16-08-2014 20:35:00 14.6 C 11.76 g/m*3 14.6 C 1.6 km/h
1095 16-08-2014 20:40:00 14.6 C 11.64 g/m*3 14.6 C 1.6 km/h
1096 16-08-2014 20:45:00 14.7 C 11.71 g/m*3 14.7 C 1.6 km/h
1097 16-08-2014 20:50:00 14.7 C 11.58 g/m*3 14.7 C 1.6 km/h
1098 16-08-2014 20:55:00 14.8 C 11.65 g/m*3 14.8 C 1.6 km/h
1099 16-08-2014 21:00:00 14.8 C 11.65 g/m*3 14.8 C 1.6 km/h
1100 16-08-2014 21:05:00 14.8 C 11.53 g/m*3 14.8 C 1.6 km/h
Sensor: Nr:Datum:Temp:Abs-Feuchte:Windchill:Wind:
Aussen-T/F 1101 16-08-2014 21:10:00 14.8 C 11.65 g/m*3 14.8 C 1.6 km/h
1102 16-08-2014 21:15:00 14.8 C 11.4 g/m*3 14.8 C 3.2 km/h
1103 16-08-2014 21:20:00 15 C 11.41 g/m*3 15 C 3.2 km/h
1104 16-08-2014 21:25:00 15.2 C 11.55 g/m*3 15.2 C 1.6 km/h
1105 16-08-2014 21:30:00 15.2 C 11.55 g/m*3 15.2 C 0 km/h
1106 16-08-2014 21:35:00 15.1 C 11.61 g/m*3 15.1 C 0 km/h
1107 16-08-2014 21:40:00 14.9 C 11.6 g/m*3 14.9 C 0 km/h
1108 16-08-2014 21:45:00 14.8 C 11.65 g/m*3 14.8 C 0 km/h
1109 16-08-2014 21:50:00 14.7 C 11.58 g/m*3 14.7 C 0 km/h
1110 16-08-2014 21:55:00 14.7 C 11.58 g/m*3 14.7 C 0 km/h
1111 16-08-2014 22:00:00 14.7 C 11.71 g/m*3 14.7 C 0 km/h
1112 16-08-2014 22:05:00 14.7 C 11.71 g/m*3 14.7 C 0 km/h
1113 16-08-2014 22:10:00 14.7 C 11.71 g/m*3 14.7 C 0 km/h
1114 16-08-2014 22:15:00 14.7 C 11.71 g/m*3 14.7 C 0 km/h
1115 16-08-2014 22:20:00 14.6 C 11.76 g/m*3 14.6 C 0 km/h
1116 16-08-2014 22:25:00 14.6 C 11.76 g/m*3 14.6 C 0 km/h
1117 16-08-2014 22:30:00 14.5 C 11.69 g/m*3 14.5 C 0 km/h
1118 16-08-2014 22:35:00 14.5 C 11.69 g/m*3 14.5 C 0 km/h
1119 16-08-2014 22:40:00 14.5 C 11.69 g/m*3 14.5 C 0 km/h
1120 16-08-2014 22:45:00 14.5 C 11.69 g/m*3 14.5 C 0 km/h
1121 16-08-2014 22:50:00 14.5 C 11.82 g/m*3 14.5 C 0 km/h
1122 16-08-2014 22:55:00 14.5 C 11.82 g/m*3 14.5 C 0 km/h
1123 16-08-2014 23:00:00 14.5 C 11.82 g/m*3 14.5 C 0 km/h
1124 16-08-2014 23:05:00 14.5 C 11.82 g/m*3 14.5 C 0 km/h
1125 16-08-2014 23:10:00 14.5 C 11.82 g/m*3 14.5 C 0 km/h
Sensor: Nr:Datum:Temp:Abs-Feuchte:Windchill:Wind:
Aussen-T/F 1126 16-08-2014 23:15:00 14.5 C 11.82 g/m*3 14.5 C 0 km/h
1127 16-08-2014 23:20:00 14.5 C 11.82 g/m*3 14.5 C 0 km/h
1128 16-08-2014 23:25:00 14.5 C 11.82 g/m*3 14.5 C 0 km/h
1129 16-08-2014 23:30:00 14.5 C 11.82 g/m*3 14.5 C 0 km/h
1130 16-08-2014 23:35:00 14.6 C 11.89 g/m*3 14.6 C 0 km/h
1131 16-08-2014 23:40:00 14.5 C 11.82 g/m*3 14.5 C 0 km/h
1132 16-08-2014 23:45:00 14.5 C 11.82 g/m*3 14.5 C 0 km/h
1133 16-08-2014 23:50:00 14.5 C 11.82 g/m*3 14.5 C 0 km/h
1134 16-08-2014 23:55:00 14.6 C 11.89 g/m*3 14.6 C 0 km/h
1135 17-08-2014 00:00:00 14.6 C 11.89 g/m*3 14.6 C 0 km/h
1136 17-08-2014 00:05:00 14.6 C 11.89 g/m*3 14.6 C 0 km/h
1137 17-08-2014 00:10:00 14.5 C 11.69 g/m*3 14.5 C 0 km/h
1138 17-08-2014 00:15:00 14.6 C 11.76 g/m*3 14.6 C 0 km/h
1139 17-08-2014 00:20:00 14.6 C 11.76 g/m*3 14.6 C 0 km/h
1140 17-08-2014 00:25:00 14.6 C 11.64 g/m*3 14.6 C 0 km/h
1141 17-08-2014 00:30:00 14.6 C 11.64 g/m*3 14.6 C 0 km/h
1142 17-08-2014 00:35:00 14.4 C 11.5 g/m*3 14.4 C 0 km/h
1143 17-08-2014 00:40:00 14.4 C 11.5 g/m*3 14.4 C 0 km/h
1144 17-08-2014 00:45:00 14.4 C 11.5 g/m*3 14.4 C 0 km/h
1145 17-08-2014 00:50:00 14.3 C 11.43 g/m*3 14.3 C 0 km/h
1146 17-08-2014 00:55:00 14.3 C 11.43 g/m*3 14.3 C 0 km/h
1147 17-08-2014 01:00:00 14.2 C 11.36 g/m*3 14.2 C 0 km/h
1148 17-08-2014 01:05:00 14.2 C 11.36 g/m*3 14.2 C 0 km/h
1149 17-08-2014 01:10:00 14.1 C 11.29 g/m*3 14.1 C 0 km/h
1150 17-08-2014 01:15:00 14 C 11.22 g/m*3 14 C 0 km/h
Sensor: Nr:Datum:Temp:Abs-Feuchte:Windchill:Wind:
Aussen-T/F 1151 17-08-2014 01:20:00 13.9 C 11.27 g/m*3 13.9 C 0 km/h
1152 17-08-2014 01:25:00 13.8 C 11.2 g/m*3 13.8 C 0 km/h
1153 17-08-2014 01:30:00 13.7 C 11.13 g/m*3 13.7 C 0 km/h
1154 17-08-2014 01:35:00 13.7 C 11.13 g/m*3 13.7 C 0 km/h
1155 17-08-2014 01:40:00 13.7 C 11.13 g/m*3 13.7 C 0 km/h
1156 17-08-2014 01:45:00 13.6 C 11.06 g/m*3 13.6 C 0 km/h
1157 17-08-2014 01:50:00 13.6 C 11.06 g/m*3 13.6 C 0 km/h
1158 17-08-2014 01:55:00 13.6 C 11.06 g/m*3 13.6 C 0 km/h
1159 17-08-2014 02:00:00 13.6 C 11.06 g/m*3 13.6 C 0 km/h
1160 17-08-2014 02:05:00 13.5 C 11.11 g/m*3 13.5 C 0 km/h
1161 17-08-2014 02:10:00 13.5 C 11.11 g/m*3 13.5 C 0 km/h
1162 17-08-2014 02:15:00 13.6 C 11.18 g/m*3 13.6 C 0 km/h
1163 17-08-2014 02:20:00 13.6 C 11.18 g/m*3 13.6 C 0 km/h
1164 17-08-2014 02:25:00 13.6 C 11.18 g/m*3 13.6 C 0 km/h
1165 17-08-2014 02:30:00 13.6 C 11.18 g/m*3 13.6 C 0 km/h
1166 17-08-2014 02:35:00 13.6 C 11.06 g/m*3 13.6 C 0 km/h
1167 17-08-2014 02:40:00 13.7 C 11.13 g/m*3 13.7 C 0 km/h
1168 17-08-2014 02:45:00 13.7 C 11.13 g/m*3 13.7 C 0 km/h
1169 17-08-2014 02:50:00 13.7 C 11.13 g/m*3 13.7 C 0 km/h
1170 17-08-2014 02:55:00 13.7 C 11.13 g/m*3 13.7 C 0 km/h
1171 17-08-2014 03:00:00 13.8 C 11.2 g/m*3 13.8 C 0 km/h
1172 17-08-2014 03:05:00 13.7 C 11.13 g/m*3 13.7 C 0 km/h
1173 17-08-2014 03:10:00 13.7 C 11.13 g/m*3 13.7 C 0 km/h
1174 17-08-2014 03:15:00 13.7 C 11.13 g/m*3 13.7 C 0 km/h
1175 17-08-2014 03:20:00 13.8 C 11.2 g/m*3 13.8 C 0 km/h
Sensor: Nr:Datum:Temp:Abs-Feuchte:Windchill:Wind:
Aussen-T/F 1176 17-08-2014 03:25:00 13.8 C 11.2 g/m*3 13.8 C 0 km/h
1177 17-08-2014 03:30:00 13.8 C 11.2 g/m*3 13.8 C 0 km/h
1178 17-08-2014 03:35:00 13.9 C 11.27 g/m*3 13.9 C 0 km/h
1179 17-08-2014 03:40:00 13.9 C 11.27 g/m*3 13.9 C 0 km/h
1180 17-08-2014 03:45:00 13.9 C 11.27 g/m*3 13.9 C 0 km/h
1181 17-08-2014 03:50:00 13.9 C 11.27 g/m*3 13.9 C 0 km/h
1182 17-08-2014 03:55:00 13.9 C 11.15 g/m*3 13.9 C 0 km/h
1183 17-08-2014 04:00:00 13.8 C 11.08 g/m*3 13.8 C 0 km/h
1184 17-08-2014 04:05:00 13.8 C 11.2 g/m*3 13.8 C 0 km/h
1185 17-08-2014 04:10:00 13.7 C 11.13 g/m*3 13.7 C 0 km/h
1186 17-08-2014 04:15:00 13.7 C 11.13 g/m*3 13.7 C 0 km/h
1187 17-08-2014 04:20:00 13.6 C 11.06 g/m*3 13.6 C 0 km/h
1188 17-08-2014 04:25:00 13.6 C 11.18 g/m*3 13.6 C 0 km/h
1189 17-08-2014 04:30:00 13.6 C 11.18 g/m*3 13.6 C 0 km/h
1190 17-08-2014 04:35:00 13.6 C 11.18 g/m*3 13.6 C 0 km/h
1191 17-08-2014 04:40:00 13.6 C 11.18 g/m*3 13.6 C 0 km/h
1192 17-08-2014 04:45:00 13.6 C 11.18 g/m*3 13.6 C 0 km/h
1193 17-08-2014 04:50:00 13.6 C 11.18 g/m*3 13.6 C 0 km/h
1194 17-08-2014 04:55:00 13.6 C 11.18 g/m*3 13.6 C 0 km/h
1195 17-08-2014 05:00:00 13.6 C 11.18 g/m*3 13.6 C 0 km/h
1196 17-08-2014 05:05:00 13.5 C 11.11 g/m*3 13.5 C 0 km/h
1197 17-08-2014 05:10:00 13.5 C 11.11 g/m*3 13.5 C 0 km/h
1198 17-08-2014 05:15:00 13.5 C 11.11 g/m*3 13.5 C 0 km/h
1199 17-08-2014 05:20:00 13.6 C 11.18 g/m*3 13.6 C 0 km/h
1200 17-08-2014 05:25:00 13.6 C 11.18 g/m*3 13.6 C 0 km/h
Sensor: Nr:Datum:Temp:Abs-Feuchte:Windchill:Wind:
Aussen-T/F 1201 17-08-2014 05:30:00 13.6 C 11.18 g/m*3 13.6 C 0 km/h
1202 17-08-2014 05:35:00 13.6 C 11.18 g/m*3 13.6 C 0 km/h
1203 17-08-2014 05:40:00 13.6 C 11.18 g/m*3 13.6 C 0 km/h
1204 17-08-2014 05:45:00 13.5 C 11.11 g/m*3 13.5 C 0 km/h
1205 17-08-2014 05:50:00 13.4 C 10.93 g/m*3 13.4 C 0 km/h
1206 17-08-2014 05:55:00 13.3 C 10.98 g/m*3 13.3 C 0 km/h
1207 17-08-2014 06:00:00 13.4 C 11.04 g/m*3 13.4 C 0 km/h
1208 17-08-2014 06:05:00 13.4 C 11.04 g/m*3 13.4 C 0 km/h
1209 17-08-2014 06:10:00 13.4 C 11.04 g/m*3 13.4 C 0 km/h
1210 17-08-2014 06:15:00 13.4 C 11.04 g/m*3 13.4 C 0 km/h
1211 17-08-2014 06:20:00 13.3 C 10.98 g/m*3 13.3 C 0 km/h
1212 17-08-2014 06:25:00 13.2 C 10.91 g/m*3 13.2 C 0 km/h
1213 17-08-2014 06:30:00 13.2 C 10.91 g/m*3 13.2 C 0 km/h
1214 17-08-2014 06:35:00 13.1 C 10.84 g/m*3 13.1 C 0 km/h
1215 17-08-2014 06:40:00 13.1 C 10.84 g/m*3 13.1 C 0 km/h
1216 17-08-2014 06:45:00 13.1 C 10.84 g/m*3 13.1 C 0 km/h
1217 17-08-2014 06:50:00 13.1 C 10.84 g/m*3 13.1 C 0 km/h
1218 17-08-2014 06:55:00 12.9 C 10.71 g/m*3 12.9 C 0 km/h
1219 17-08-2014 07:00:00 12.9 C 10.71 g/m*3 12.9 C 0 km/h
1220 17-08-2014 07:05:00 12.8 C 10.64 g/m*3 12.8 C 0 km/h
1221 17-08-2014 07:10:00 12.8 C 10.64 g/m*3 12.8 C 0 km/h
1222 17-08-2014 07:15:00 12.7 C 10.58 g/m*3 12.7 C 0 km/h
1223 17-08-2014 07:20:00 12.7 C 10.58 g/m*3 12.7 C 0 km/h
1224 17-08-2014 07:25:00 12.7 C 10.69 g/m*3 12.7 C 0 km/h
1225 17-08-2014 07:30:00 12.7 C 10.69 g/m*3 12.7 C 0 km/h
Sensor: Nr:Datum:Temp:Abs-Feuchte:Windchill:Wind:
Aussen-T/F 1226 17-08-2014 07:35:00 12.7 C 10.69 g/m*3 12.7 C 0 km/h
1227 17-08-2014 07:40:00 12.7 C 10.69 g/m*3 12.7 C 0 km/h
1228 17-08-2014 07:45:00 12.7 C 10.69 g/m*3 12.7 C 0 km/h
1229 17-08-2014 07:50:00 12.8 C 10.75 g/m*3 12.8 C 0 km/h
1230 17-08-2014 07:55:00 12.8 C 10.75 g/m*3 12.8 C 0 km/h
1231 17-08-2014 08:00:00 12.9 C 10.82 g/m*3 12.9 C 0 km/h
1232 17-08-2014 08:05:00 13 C 10.89 g/m*3 13 C 4.8 km/h
1233 17-08-2014 08:10:00 13.1 C 10.95 g/m*3 13.1 C 0 km/h
1234 17-08-2014 08:15:00 13.2 C 10.91 g/m*3 13.2 C 0 km/h
1235 17-08-2014 08:20:00 13.4 C 10.93 g/m*3 13.4 C 6.4 km/h
1236 17-08-2014 08:25:00 13.6 C 10.95 g/m*3 13.6 C 6.4 km/h
1237 17-08-2014 08:30:00 13.8 C 10.84 g/m*3 13.8 C 0 km/h
1238 17-08-2014 08:35:00 14 C 10.74 g/m*3 14 C 0 km/h
1239 17-08-2014 08:40:00 14.3 C 10.69 g/m*3 14.3 C 14.5 km/h
1240 17-08-2014 08:45:00 14.5 C 10.82 g/m*3 14.5 C 8.1 km/h
1241 17-08-2014 08:50:00 14.7 C 11.08 g/m*3 14.7 C 0 km/h
1242 17-08-2014 08:55:00 14.7 C 10.83 g/m*3 14.7 C 0 km/h
1243 17-08-2014 09:00:00 14.9 C 10.58 g/m*3 14.9 C 11.3 km/h
1244 17-08-2014 09:05:00 15.1 C 10.97 g/m*3 15.1 C 4.8 km/h
1245 17-08-2014 09:10:00 15.2 C 10.64 g/m*3 15.2 C 9.7 km/h
1246 17-08-2014 09:15:00 15.3 C 10.58 g/m*3 15.3 C 12.9 km/h
1247 17-08-2014 09:20:00 15.4 C 10.64 g/m*3 15.4 C 8.1 km/h
1248 17-08-2014 09:25:00 15.5 C 10.71 g/m*3 15.5 C 8.1 km/h
1249 17-08-2014 09:30:00 15.7 C 10.84 g/m*3 15.7 C 6.4 km/h
1250 17-08-2014 09:35:00 15.8 C 10.77 g/m*3 15.8 C 12.9 km/h
Sensor: Nr:Datum:Temp:Abs-Feuchte:Windchill:Wind:
Aussen-T/F 1251 17-08-2014 09:40:00 15.8 C 10.77 g/m*3 15.8 C 8.1 km/h
1252 17-08-2014 09:45:00 15.8 C 10.63 g/m*3 15.8 C 9.7 km/h
1253 17-08-2014 09:50:00 15.8 C 10.5 g/m*3 15.8 C 11.3 km/h
1254 17-08-2014 09:55:00 16 C 10.63 g/m*3 16 C 19.3 km/h
1255 17-08-2014 10:00:00 16.2 C 10.89 g/m*3 16.2 C 19.3 km/h
1256 17-08-2014 10:05:00 16.3 C 10.82 g/m*3 16.3 C 12.9 km/h
1257 17-08-2014 10:10:00 16.3 C 10.82 g/m*3 16.3 C 6.4 km/h
1258 17-08-2014 10:15:00 16.4 C 10.89 g/m*3 16.4 C 11.3 km/h
1259 17-08-2014 10:20:00 16.4 C 10.89 g/m*3 16.4 C 6.4 km/h
1260 17-08-2014 10:25:00 16.6 C 10.88 g/m*3 16.6 C 12.9 km/h
1261 17-08-2014 10:30:00 16.7 C 11.08 g/m*3 16.7 C 9.7 km/h
1262 17-08-2014 10:35:00 16.8 C 10.87 g/m*3 16.8 C 11.3 km/h
1263 17-08-2014 10:40:00 16.8 C 10.87 g/m*3 16.8 C 6.4 km/h
1264 17-08-2014 10:45:00 16.9 C 10.93 g/m*3 16.9 C 11.3 km/h
1265 17-08-2014 10:50:00 17 C 10.56 g/m*3 17 C 19.3 km/h
1266 17-08-2014 10:55:00 17 C 10.56 g/m*3 17 C 16.1 km/h
1267 17-08-2014 11:00:00 17.1 C 10.63 g/m*3 17.1 C 12.9 km/h
1268 17-08-2014 11:05:00 17.2 C 10.54 g/m*3 17.2 C 16.1 km/h
1269 17-08-2014 11:10:00 17.3 C 10.61 g/m*3 17.3 C 11.3 km/h
1270 17-08-2014 11:15:00 17.3 C 10.61 g/m*3 17.3 C 14.5 km/h
1271 17-08-2014 11:20:00 17.3 C 10.75 g/m*3 17.3 C 8.1 km/h
1272 17-08-2014 11:25:00 17.4 C 10.82 g/m*3 17.4 C 19.3 km/h
1273 17-08-2014 11:30:00 17.7 C 10.56 g/m*3 17.7 C 16.1 km/h
1274 17-08-2014 11:35:00 18 C 11.06 g/m*3 18 C 17.7 km/h
1275 17-08-2014 11:40:00 18.1 C 10.66 g/m*3 18.1 C 17.7 km/h
Sensor: Nr:Datum:Temp:Abs-Feuchte:Windchill:Wind:
Aussen-T/F 1276 17-08-2014 11:45:00 17.9 C 10.54 g/m*3 17.9 C 19.3 km/h
1277 17-08-2014 11:50:00 17.8 C 10.32 g/m*3 17.8 C 12.9 km/h
1278 17-08-2014 11:55:00 17.8 C 10.32 g/m*3 17.8 C 14.5 km/h
1279 17-08-2014 12:00:00 17.8 C 10.47 g/m*3 17.8 C 9.7 km/h
1280 17-08-2014 12:05:00 17.9 C 10.38 g/m*3 17.9 C 12.9 km/h
1281 17-08-2014 12:10:00 17.9 C 10.23 g/m*3 17.9 C 19.3 km/h
1282 17-08-2014 12:15:00 18.2 C 10.26 g/m*3 18.2 C 20.9 km/h
1283 17-08-2014 12:20:00 18.4 C 10.07 g/m*3 18.4 C 20.9 km/h
1284 17-08-2014 12:25:00 18.6 C 10.03 g/m*3 18.6 C 14.5 km/h
1285 17-08-2014 12:30:00 18.7 C 10.09 g/m*3 18.7 C 14.5 km/h
1286 17-08-2014 12:35:00 18.8 C 10.47 g/m*3 18.8 C 24.1 km/h
1287 17-08-2014 12:40:00 18.9 C 10.04 g/m*3 18.9 C 24.1 km/h
1288 17-08-2014 12:45:00 18.9 C 10.04 g/m*3 18.9 C 19.3 km/h
1289 17-08-2014 12:50:00 18.8 C 9.99 g/m*3 18.8 C 22.5 km/h
1290 17-08-2014 12:55:00 19 C 10.1 g/m*3 19 C 19.3 km/h
1291 17-08-2014 13:00:00 19 C 9.78 g/m*3 19 C 22.5 km/h
1292 17-08-2014 13:05:00 18.8 C 9.99 g/m*3 18.8 C 11.3 km/h
1293 17-08-2014 13:10:00 18.6 C 10.03 g/m*3 18.6 C 17.7 km/h
1294 17-08-2014 13:15:00 18.4 C 9.91 g/m*3 18.4 C 9.7 km/h
1295 17-08-2014 13:20:00 18.2 C 9.64 g/m*3 18.2 C 11.3 km/h
1296 17-08-2014 13:25:00 18.2 C 9.64 g/m*3 18.2 C 14.5 km/h
1297 17-08-2014 13:30:00 18.1 C 9.43 g/m*3 18.1 C 19.3 km/h
1298 17-08-2014 13:35:00 18.2 C 9.64 g/m*3 18.2 C 22.5 km/h
1299 17-08-2014 13:40:00 18.2 C 9.95 g/m*3 18.2 C 9.7 km/h
1300 17-08-2014 13:45:00 18.3 C 10.32 g/m*3 18.3 C 8.1 km/h
Sensor: Nr:Datum:Temp:Abs-Feuchte:Windchill:Wind:
Aussen-T/F 1301 17-08-2014 13:50:00 18.3 C 10.48 g/m*3 18.3 C 8.1 km/h
1302 17-08-2014 13:55:00 18.2 C 9.95 g/m*3 18.2 C 9.7 km/h
1303 17-08-2014 14:00:00 18.1 C 9.89 g/m*3 18.1 C 14.5 km/h
1304 17-08-2014 14:05:00 17.9 C 9.62 g/m*3 17.9 C 16.1 km/h
1305 17-08-2014 14:10:00 17.8 C 9.41 g/m*3 17.8 C 17.7 km/h
1306 17-08-2014 14:15:00 17.8 C 9.56 g/m*3 17.8 C 14.5 km/h
1307 17-08-2014 14:20:00 17.9 C 9.62 g/m*3 17.9 C 12.9 km/h
1308 17-08-2014 14:25:00 18 C 9.68 g/m*3 18 C 20.9 km/h
1309 17-08-2014 14:30:00 18 C 9.68 g/m*3 18 C 9.7 km/h
1310 17-08-2014 14:35:00 18 C 9.98 g/m*3 18 C 9.7 km/h
1311 17-08-2014 14:40:00 18.1 C 9.89 g/m*3 18.1 C 12.9 km/h
1312 17-08-2014 14:45:00 18.3 C 9.85 g/m*3 18.3 C 16.1 km/h
1313 17-08-2014 14:50:00 18.6 C 9.87 g/m*3 18.6 C 9.7 km/h
1314 17-08-2014 14:55:00 18.6 C 9.87 g/m*3 18.6 C 14.5 km/h
1315 17-08-2014 15:00:00 18.6 C 9.71 g/m*3 18.6 C 8.1 km/h
1316 17-08-2014 15:05:00 18.5 C 9.97 g/m*3 18.5 C 6.4 km/h
1317 17-08-2014 15:10:00 18.3 C 9.54 g/m*3 18.3 C 12.9 km/h
1318 17-08-2014 15:15:00 18 C 9.37 g/m*3 18 C 11.3 km/h
1319 17-08-2014 15:20:00 17.9 C 9.47 g/m*3 17.9 C 14.5 km/h
1320 17-08-2014 15:25:00 17.9 C 9.47 g/m*3 17.9 C 9.7 km/h
1321 17-08-2014 15:30:00 18.2 C 9.64 g/m*3 18.2 C 14.5 km/h
1322 17-08-2014 15:35:00 18.2 C 9.64 g/m*3 18.2 C 14.5 km/h
1323 17-08-2014 15:40:00 18.6 C 9.71 g/m*3 18.6 C 19.3 km/h
1324 17-08-2014 15:45:00 18.7 C 9.77 g/m*3 18.7 C 14.5 km/h
1325 17-08-2014 15:50:00 18.8 C 10.31 g/m*3 18.8 C 9.7 km/h
Sensor: Nr:Datum:Temp:Abs-Feuchte:Windchill:Wind:
Aussen-T/F 1326 17-08-2014 15:55:00 18.7 C 10.09 g/m*3 18.7 C 3.2 km/h
1327 17-08-2014 16:00:00 18.7 C 9.93 g/m*3 18.7 C 14.5 km/h
1328 17-08-2014 16:05:00 18.7 C 9.77 g/m*3 18.7 C 8.1 km/h
1329 17-08-2014 16:10:00 18.7 C 9.77 g/m*3 18.7 C 20.9 km/h
1330 17-08-2014 16:15:00 18.8 C 9.99 g/m*3 18.8 C 11.3 km/h
1331 17-08-2014 16:20:00 18.8 C 10.15 g/m*3 18.8 C 11.3 km/h
1332 17-08-2014 16:25:00 18.8 C 9.82 g/m*3 18.8 C 17.7 km/h
1333 17-08-2014 16:30:00 18.7 C 9.77 g/m*3 18.7 C 11.3 km/h
1334 17-08-2014 16:35:00 18.6 C 9.71 g/m*3 18.6 C 12.9 km/h
1335 17-08-2014 16:40:00 18.4 C 9.44 g/m*3 18.4 C 16.1 km/h
1336 17-08-2014 16:45:00 18.6 C 10.03 g/m*3 18.6 C 6.4 km/h
1337 17-08-2014 16:50:00 18.6 C 9.71 g/m*3 18.6 C 12.9 km/h
1338 17-08-2014 16:55:00 18.6 C 9.71 g/m*3 18.6 C 20.9 km/h
1339 17-08-2014 17:00:00 18.6 C 9.71 g/m*3 18.6 C 11.3 km/h
1340 17-08-2014 17:05:00 18.6 C 10.03 g/m*3 18.6 C 12.9 km/h
1341 17-08-2014 17:10:00 18.5 C 9.65 g/m*3 18.5 C 12.9 km/h
1342 17-08-2014 17:15:00 18.4 C 9.91 g/m*3 18.4 C 3.2 km/h
1343 17-08-2014 17:20:00 18.3 C 9.69 g/m*3 18.3 C 6.4 km/h
1344 17-08-2014 17:25:00 18.3 C 9.69 g/m*3 18.3 C 6.4 km/h
1345 17-08-2014 17:30:00 18.2 C 9.79 g/m*3 18.2 C 11.3 km/h
1346 17-08-2014 17:35:00 18.2 C 9.79 g/m*3 18.2 C 9.7 km/h
1347 17-08-2014 17:40:00 18.2 C 9.64 g/m*3 18.2 C 8.1 km/h
1348 17-08-2014 17:45:00 18.2 C 9.95 g/m*3 18.2 C 3.2 km/h
1349 17-08-2014 17:50:00 18.1 C 9.73 g/m*3 18.1 C 4.8 km/h
1350 17-08-2014 17:55:00 18.2 C 10.1 g/m*3 18.2 C 9.7 km/h
Sensor: Nr:Datum:Temp:Abs-Feuchte:Windchill:Wind:
Aussen-T/F 1351 17-08-2014 18:00:00 18.2 C 10.1 g/m*3 18.2 C 3.2 km/h
1352 17-08-2014 18:05:00 18.2 C 9.95 g/m*3 18.2 C 6.4 km/h
1353 17-08-2014 18:10:00 18.3 C 10.48 g/m*3 18.3 C 8.1 km/h
1354 17-08-2014 18:15:00 18.3 C 10.01 g/m*3 18.3 C 11.3 km/h
1355 17-08-2014 18:20:00 18.5 C 9.97 g/m*3 18.5 C 8.1 km/h
1356 17-08-2014 18:25:00 18.6 C 9.87 g/m*3 18.6 C 14.5 km/h
1357 17-08-2014 18:30:00 18.6 C 10.03 g/m*3 18.6 C 8.1 km/h
1358 17-08-2014 18:35:00 18.5 C 9.97 g/m*3 18.5 C 4.8 km/h
1359 17-08-2014 18:40:00 18.4 C 9.91 g/m*3 18.4 C 12.9 km/h
1360 17-08-2014 18:45:00 18.3 C 10.16 g/m*3 18.3 C 9.7 km/h
1361 17-08-2014 18:50:00 18.3 C 10.01 g/m*3 18.3 C 12.9 km/h
1362 17-08-2014 18:55:00 18.3 C 10.01 g/m*3 18.3 C 4.8 km/h
1363 17-08-2014 19:00:00 18.2 C 10.1 g/m*3 18.2 C 3.2 km/h
1364 17-08-2014 19:05:00 18.2 C 10.88 g/m*3 18.2 C 8.1 km/h
1365 17-08-2014 19:10:00 17.9 C 10.38 g/m*3 17.9 C 9.7 km/h
1366 17-08-2014 19:15:00 17.8 C 11.08 g/m*3 17.8 C 9.7 km/h
1367 17-08-2014 19:20:00 17.8 C 10.17 g/m*3 17.8 C 12.9 km/h
1368 17-08-2014 19:25:00 17.8 C 10.17 g/m*3 17.8 C 3.2 km/h
1369 17-08-2014 19:30:00 17.9 C 10.08 g/m*3 17.9 C 3.2 km/h
1370 17-08-2014 19:35:00 17.9 C 10.38 g/m*3 17.9 C 4.8 km/h
1371 17-08-2014 19:40:00 17.9 C 10.08 g/m*3 17.9 C 8.1 km/h
1372 17-08-2014 19:45:00 17.9 C 10.23 g/m*3 17.9 C 6.4 km/h
1373 17-08-2014 19:50:00 17.8 C 11.08 g/m*3 17.8 C 0 km/h
1374 17-08-2014 19:55:00 17.6 C 10.65 g/m*3 17.6 C 6.4 km/h
1375 17-08-2014 20:00:00 17.6 C 10.2 g/m*3 17.6 C 11.3 km/h
Sensor: Nr:Datum:Temp:Abs-Feuchte:Windchill:Wind:
Aussen-T/F 1376 17-08-2014 20:05:00 17.7 C 10.86 g/m*3 17.7 C 8.1 km/h
1377 17-08-2014 20:10:00 17.6 C 10.5 g/m*3 17.6 C 11.3 km/h
1378 17-08-2014 20:15:00 17.6 C 10.2 g/m*3 17.6 C 6.4 km/h
1379 17-08-2014 20:20:00 17.7 C 10.11 g/m*3 17.7 C 9.7 km/h
1380 17-08-2014 20:25:00 17.7 C 10.26 g/m*3 17.7 C 3.2 km/h
1381 17-08-2014 20:30:00 17.7 C 10.11 g/m*3 17.7 C 6.4 km/h
1382 17-08-2014 20:35:00 17.6 C 10.35 g/m*3 17.6 C 4.8 km/h
1383 17-08-2014 20:40:00 17.6 C 10.95 g/m*3 17.6 C 4.8 km/h
1384 17-08-2014 20:45:00 17.3 C 10.16 g/m*3 17.3 C 11.3 km/h
1385 17-08-2014 20:50:00 17.3 C 10.31 g/m*3 17.3 C 9.7 km/h
1386 17-08-2014 20:55:00 17.4 C 10.23 g/m*3 17.4 C 4.8 km/h
1387 17-08-2014 21:00:00 17.4 C 10.08 g/m*3 17.4 C 8.1 km/h
1388 17-08-2014 21:05:00 17.4 C 10.08 g/m*3 17.4 C 3.2 km/h
1389 17-08-2014 21:10:00 17.3 C 10.16 g/m*3 17.3 C 4.8 km/h
1390 17-08-2014 21:15:00 17.3 C 10.31 g/m*3 17.3 C 3.2 km/h
1391 17-08-2014 21:20:00 17.2 C 10.25 g/m*3 17.2 C 1.6 km/h
1392 17-08-2014 21:25:00 17.2 C 9.96 g/m*3 17.2 C 9.7 km/h
1393 17-08-2014 21:30:00 17.2 C 10.1 g/m*3 17.2 C 1.6 km/h
1394 17-08-2014 21:35:00 17.1 C 10.04 g/m*3 17.1 C 6.4 km/h
1395 17-08-2014 21:40:00 17.1 C 10.04 g/m*3 17.1 C 9.7 km/h
1396 17-08-2014 21:45:00 17 C 10.13 g/m*3 17 C 9.7 km/h
1397 17-08-2014 21:50:00 17 C 9.98 g/m*3 17 C 6.4 km/h
1398 17-08-2014 21:55:00 17 C 10.13 g/m*3 17 C 11.3 km/h
1399 17-08-2014 22:00:00 16.9 C 9.92 g/m*3 16.9 C 6.4 km/h
1400 17-08-2014 22:05:00 16.8 C 9.87 g/m*3 16.8 C 4.8 km/h
Sensor: Nr:Datum:Temp:Abs-Feuchte:Windchill:Wind:
Aussen-T/F 1401 17-08-2014 22:10:00 16.8 C 9.87 g/m*3 16.8 C 11.3 km/h
1402 17-08-2014 22:15:00 16.8 C 9.87 g/m*3 16.8 C 9.7 km/h
1403 17-08-2014 22:20:00 16.8 C 9.87 g/m*3 16.8 C 6.4 km/h
1404 17-08-2014 22:25:00 16.8 C 9.87 g/m*3 16.8 C 12.9 km/h
1405 17-08-2014 22:30:00 16.8 C 9.72 g/m*3 16.8 C 12.9 km/h
1406 17-08-2014 22:35:00 16.8 C 9.87 g/m*3 16.8 C 3.2 km/h
1407 17-08-2014 22:40:00 16.7 C 9.81 g/m*3 16.7 C 6.4 km/h
1408 17-08-2014 22:45:00 16.7 C 9.81 g/m*3 16.7 C 4.8 km/h
1409 17-08-2014 22:50:00 16.7 C 9.81 g/m*3 16.7 C 8.1 km/h
1410 17-08-2014 22:55:00 16.7 C 9.95 g/m*3 16.7 C 8.1 km/h
1411 17-08-2014 23:00:00 16.7 C 9.81 g/m*3 16.7 C 9.7 km/h
1412 17-08-2014 23:05:00 16.8 C 9.87 g/m*3 16.8 C 9.7 km/h
1413 17-08-2014 23:10:00 16.8 C 9.87 g/m*3 16.8 C 6.4 km/h
1414 17-08-2014 23:15:00 16.8 C 9.87 g/m*3 16.8 C 4.8 km/h
1415 17-08-2014 23:20:00 16.9 C 9.92 g/m*3 16.9 C 8.1 km/h
1416 17-08-2014 23:25:00 16.9 C 9.92 g/m*3 16.9 C 14.5 km/h
1417 17-08-2014 23:30:00 17 C 9.98 g/m*3 17 C 8.1 km/h
1418 17-08-2014 23:35:00 16.9 C 9.92 g/m*3 16.9 C 6.4 km/h
1419 17-08-2014 23:40:00 16.9 C 9.92 g/m*3 16.9 C 6.4 km/h
1420 17-08-2014 23:45:00 16.9 C 9.92 g/m*3 16.9 C 8.1 km/h
1421 17-08-2014 23:50:00 17 C 9.98 g/m*3 17 C 19.3 km/h
1422 17-08-2014 23:55:00 17 C 9.98 g/m*3 17 C 8.1 km/h

Legende:
   Min
   Max


Maximal/Minimal-Werte vom 13.08.2014 - 17.08.2014

Sensor Min Max Avg
Temp
(Aussen-T/F)
12.3 °C
16-08-2014  06:55:00
21.9 °C
14-08-2014  17:15:00
15.58 °C
Abs-Feuchte
(Aussen-T/F)
9.37 g/m*3
17-08-2014  15:15:00
14.34 g/m*3
13-08-2014  14:25:00
11.41 g/m*3
Windchill
(Aussen-T/F)
12.3 C
16-08-2014  06:55:00
21.9 C
14-08-2014  17:15:00
15.57 C

Die Daten stammen von einer Davis Vantage Pro 2 Wetter-Station und werden unter Linux mit der Software wview2wettercgi und aufbereitet. Alle Angaben erfolgen ohne Gewähr für ihre Vollständigkeit oder Richtigkeit.
Kontakt: Rainer Krienke krienke@uni-koblenz.de . Meine Webseiten an der Uni Koblenz oder privat.
Version: $Revision: 0.78 $